Observation data for Boys Ranch on 02/14/2018      Previous  Date  Next       Current Mesonet Observations  Soil Data  Daily Summary Page  Observations in Plain Language
KBY1 140600Z 25008KT 12/M00 A3018 RMK A01 T01181001  RH  044%=      5-min Rain = 0
KBY1 140601Z 25008KT 12/M00 A3018 RMK A01 T01191001  RH  044%=      5-min Rain = 0
KBY1 140602Z 24007KT 12/M00 A3018 RMK A01 T01201001  RH  043%=      5-min Rain = 0
KBY1 140603Z 25005KT 12/M00 A3018 RMK A01 T01201001  RH  043%=      5-min Rain = 0
KBY1 140604Z 28007KT 12/M00 A3019 RMK A01 T01201001  RH  043%=      5-min Rain = 0
KBY1 140605Z 25008KT 12/M00 A3019 RMK A01 T01191001  RH  043%=      5-min Rain = 0
KBY1 140606Z 25007KT 12/M00 A3019 RMK A01 T01191001  RH  043%=      5-min Rain = 0
KBY1 140607Z 26005KT 12/M00 A3019 RMK A01 T01191001  RH  043%=      5-min Rain = 0
KBY1 140608Z 29004KT 12/M00 A3019 RMK A01 T01191002  RH  043%=      5-min Rain = 0
KBY1 140609Z 26007KT 12/M00 A3019 RMK A01 T01171003  RH  044%=      5-min Rain = 0
KBY1 140610Z 27006KT 12/M00 A3019 RMK A01 T01161002  RH  044%=      5-min Rain = 0
KBY1 140611Z 31003KT 12/M00 A3019 RMK A01 T01161002  RH  044%=      5-min Rain = 0
KBY1 140612Z 27004KT 12/M00 A3019 RMK A01 T01161003  RH  044%=      5-min Rain = 0
KBY1 140613Z 27006KT 12/M00 A3019 RMK A01 T01151002  RH  044%=      5-min Rain = 0
KBY1 140614Z 28004KT 12/M00 A3019 RMK A01 T01151003  RH  044%=      5-min Rain = 0
KBY1 140615Z 29003KT 12/M00 A3019 RMK A01 T01151002  RH  044%=      5-min Rain = 0
KBY1 140616Z 29005KT 11/M00 A3018 RMK A01 T01141003  RH  045%=      5-min Rain = 0
KBY1 140617Z 29003KT 11/M00 A3019 RMK A01 T01141002  RH  045%=      5-min Rain = 0
KBY1 140618Z 27004KT 11/M00 A3018 RMK A01 T01141003  RH  044%=      5-min Rain = 0
KBY1 140619Z 31004KT 11/M00 A3019 RMK A01 T01141003  RH  044%=      5-min Rain = 0
KBY1 140620Z 27006KT 11/M00 A3018 RMK A01 T01141003  RH  045%=      5-min Rain = 0
KBY1 140621Z 29004KT 11/M00 A3019 RMK A01 T01141002  RH  045%=      5-min Rain = 0
KBY1 140622Z 31005KT 11/M00 A3018 RMK A01 T01141003  RH  044%=      5-min Rain = 0
KBY1 140623Z 30002KT 11/M00 A3019 RMK A01 T01141003  RH  044%=      5-min Rain = 0
KBY1 140624Z 31004KT 11/M00 A3018 RMK A01 T01131003  RH  045%=      5-min Rain = 0
KBY1 140625Z 30004KT 11/M01 A3018 RMK A01 T01111005  RH  045%=      5-min Rain = 0
KBY1 140626Z 29004KT 11/M01 A3018 RMK A01 T01091005  RH  045%=      5-min Rain = 0
KBY1 140627Z 27003KT 11/M00 A3018 RMK A01 T01091004  RH  046%=      5-min Rain = 0
KBY1 140628Z 26005G12KT 11/M00 A3018 RMK A01 T01091003  RH  046%=      5-min Rain = 0
KBY1 140629Z 27006KT 11/M00 A3018 RMK A01 T01121002  RH  045%=      5-min Rain = 0
KBY1 140630Z 27002KT 12/M00 A3018 RMK A01 T01151002  RH  045%=      5-min Rain = 0
KBY1 140631Z 29002KT 12/M00 A3018 RMK A01 T01151003  RH  044%=      5-min Rain = 0
KBY1 140632Z 25005KT 12/M00 A3018 RMK A01 T01151003  RH  044%=      5-min Rain = 0
KBY1 140633Z 30004KT 12/M00 A3018 RMK A01 T01151003  RH  044%=      5-min Rain = 0
KBY1 140634Z 30002KT 12/M00 A3018 RMK A01 T01151003  RH  044%=      5-min Rain = 0
KBY1 140635Z 30003KT 11/M00 A3018 RMK A01 T01141003  RH  044%=      5-min Rain = 0
KBY1 140636Z 27004KT 11/M00 A3018 RMK A01 T01131004  RH  044%=      5-min Rain = 0
KBY1 140637Z 28004KT 11/M00 A3018 RMK A01 T01131004  RH  044%=      5-min Rain = 0
KBY1 140638Z 29004KT 11/M00 A3018 RMK A01 T01141004  RH  044%=      5-min Rain = 0
KBY1 140639Z 28003KT 11/M00 A3018 RMK A01 T01141004  RH  044%=      5-min Rain = 0
KBY1 140640Z 30003KT 11/M00 A3018 RMK A01 T01131004  RH  044%=      5-min Rain = 0
KBY1 140641Z 28002KT 11/M01 A3018 RMK A01 T01111006  RH  044%=      5-min Rain = 0
KBY1 140642Z 32002KT 11/M01 A3018 RMK A01 T01091006  RH  045%=      5-min Rain = 0
KBY1 140643Z 29003KT 11/M01 A3018 RMK A01 T01091006  RH  045%=      5-min Rain = 0
KBY1 140644Z 29003KT 11/M00 A3018 RMK A01 T01091004  RH  045%=      5-min Rain = 0
KBY1 140645Z 28002KT 11/M01 A3018 RMK A01 T01101005  RH  045%=      5-min Rain = 0
KBY1 140646Z 28003KT 11/M01 A3018 RMK A01 T01101005  RH  045%=      5-min Rain = 0
KBY1 140647Z 26006KT 11/M00 A3018 RMK A01 T01111004  RH  045%=      5-min Rain = 0
KBY1 140648Z 30004KT 11/M00 A3018 RMK A01 T01121003  RH  045%=      5-min Rain = 0
KBY1 140649Z 27005KT 11/M00 A3018 RMK A01 T01121004  RH  045%=      5-min Rain = 0
KBY1 140650Z 33002KT 11/M00 A3018 RMK A01 T01131003  RH  045%=      5-min Rain = 0
KBY1 140651Z 30003KT 11/M00 A3018 RMK A01 T01141004  RH  044%=      5-min Rain = 0
KBY1 140652Z 28005KT 11/M01 A3018 RMK A01 T01131005  RH  044%=      5-min Rain = 0
KBY1 140653Z 25005KT 11/M00 A3017 RMK A01 T01121003  RH  045%=      5-min Rain = 0
KBY1 140654Z 27007KT 12/M00 A3017 RMK A01 T01151001  RH  045%=      5-min Rain = 0
KBY1 140655Z 29003KT 12/M00 A3018 RMK A01 T01171002  RH  044%=      5-min Rain = 0
KBY1 140656Z 27007KT 12/M00 A3017 RMK A01 T01171002  RH  044%=      5-min Rain = 0
KBY1 140657Z 28004KT 12/M00 A3017 RMK A01 T01181002  RH  043%=      5-min Rain = 0
KBY1 140658Z 34004KT 12/M00 A3017 RMK A01 T01181003  RH  043%=      5-min Rain = 0
KBY1 140659Z 35004KT 12/M00 A3017 RMK A01 T01171004  RH  043%=      5-min Rain = 0
KBY1 140700Z 33006KT 11/M01 A3017 RMK A01 T01141005  RH  044%=      5-min Rain = 0
KBY1 140701Z 33005KT 11/M01 A3017 RMK A01 T01111006  RH  044%=      5-min Rain = 0
KBY1 140702Z 33003KT 11/M01 A3017 RMK A01 T01091006  RH  045%=      5-min Rain = 0
KBY1 140703Z 33004KT 11/M01 A3017 RMK A01 T01081006  RH  045%=      5-min Rain = 0
KBY1 140704Z 31006KT 11/M01 A3017 RMK A01 T01081005  RH  046%=      5-min Rain = 0
KBY1 140705Z 31005KT 11/M01 A3017 RMK A01 T01081005  RH  046%=      5-min Rain = 0
KBY1 140706Z 30004KT 11/M01 A3017 RMK A01 T01081005  RH  045%=      5-min Rain = 0
KBY1 140707Z 31004KT 11/M00 A3017 RMK A01 T01091004  RH  046%=      5-min Rain = 0
KBY1 140708Z 31004KT 11/M00 A3017 RMK A01 T01101004  RH  045%=      5-min Rain = 0
KBY1 140709Z 30004KT 11/M01 A3017 RMK A01 T01101005  RH  045%=      5-min Rain = 0
KBY1 140710Z 29003KT 11/M00 A3017 RMK A01 T01101004  RH  045%=      5-min Rain = 0
KBY1 140711Z 30002KT 11/M00 A3017 RMK A01 T01101004  RH  045%=      5-min Rain = 0
KBY1 140712Z 31003KT 11/M00 A3017 RMK A01 T01101004  RH  045%=      5-min Rain = 0
KBY1 140713Z 31004KT 11/M01 A3017 RMK A01 T01101005  RH  045%=      5-min Rain = 0
KBY1 140714Z 30003KT 11/M00 A3017 RMK A01 T01101004  RH  045%=      5-min Rain = 0
KBY1 140715Z 29004KT 11/M00 A3017 RMK A01 T01101004  RH  045%=      5-min Rain = 0
KBY1 140716Z 30003KT 11/M00 A3017 RMK A01 T01101004  RH  045%=      5-min Rain = 0
KBY1 140717Z 32003KT 11/M00 A3017 RMK A01 T01111003  RH  045%=      5-min Rain = 0
KBY1 140718Z 30004KT 11/M00 A3017 RMK A01 T01111004  RH  045%=      5-min Rain = 0
KBY1 140719Z 30003KT 11/M00 A3017 RMK A01 T01111003  RH  045%=      5-min Rain = 0
KBY1 140720Z 31003KT 11/M00 A3017 RMK A01 T01111003  RH  045%=      5-min Rain = 0
KBY1 140721Z 32004KT 11/M00 A3017 RMK A01 T01111003  RH  045%=      5-min Rain = 0
KBY1 140722Z 31005KT 11/M00 A3017 RMK A01 T01111003  RH  045%=      5-min Rain = 0
KBY1 140723Z 32004KT 11/M00 A3017 RMK A01 T01101003  RH  045%=      5-min Rain = 0
KBY1 140724Z 32005KT 11/M00 A3017 RMK A01 T01091004  RH  045%=      5-min Rain = 0
KBY1 140725Z 33004KT 11/M01 A3017 RMK A01 T01071005  RH  046%=      5-min Rain = 0
KBY1 140726Z 33004KT 11/M01 A3017 RMK A01 T01061005  RH  046%=      5-min Rain = 0
KBY1 140727Z 33004KT 11/M01 A3017 RMK A01 T01051005  RH  046%=      5-min Rain = 0
KBY1 140728Z 33006KT 10/M01 A3017 RMK A01 T01031006  RH  047%=      5-min Rain = 0
KBY1 140729Z 32006KT 10/M01 A3017 RMK A01 T01031005  RH  047%=      5-min Rain = 0
KBY1 140730Z 32006KT 10/M01 A3017 RMK A01 T01031005  RH  047%=      5-min Rain = 0
KBY1 140731Z 32006KT 10/M01 A3017 RMK A01 T01041005  RH  047%=      5-min Rain = 0
KBY1 140732Z 33005KT 10/M00 A3017 RMK A01 T01041004  RH  047%=      5-min Rain = 0
KBY1 140733Z 33004KT 11/M00 A3017 RMK A01 T01061003  RH  047%=      5-min Rain = 0
KBY1 140734Z 31004KT 11/M00 A3017 RMK A01 T01071004  RH  046%=      5-min Rain = 0
KBY1 140735Z 32004KT 11/M00 A3017 RMK A01 T01071004  RH  046%=      5-min Rain = 0
KBY1 140736Z 30005KT 11/M00 A3017 RMK A01 T01081004  RH  046%=      5-min Rain = 0
KBY1 140737Z 29006KT 11/M00 A3017 RMK A01 T01091003  RH  046%=      5-min Rain = 0
KBY1 140738Z 30006KT 11/M00 A3017 RMK A01 T01131002  RH  045%=      5-min Rain = 0
KBY1 140739Z 28004KT 12/M00 A3017 RMK A01 T01161002  RH  044%=      5-min Rain = 0
KBY1 140740Z 28004KT 12/M00 A3017 RMK A01 T01171002  RH  044%=      5-min Rain = 0
KBY1 140741Z 28004KT 12/M00 A3017 RMK A01 T01171002  RH  044%=      5-min Rain = 0
KBY1 140742Z 28006KT 12/M00 A3017 RMK A01 T01181003  RH  043%=      5-min Rain = 0
KBY1 140743Z 28004KT 12/M00 A3017 RMK A01 T01181003  RH  043%=      5-min Rain = 0
KBY1 140744Z 27004KT 12/M00 A3017 RMK A01 T01201003  RH  043%=      5-min Rain = 0
KBY1 140745Z 27006KT 12/M00 A3017 RMK A01 T01211003  RH  042%=      5-min Rain = 0
KBY1 140746Z 27004KT 12/M00 A3017 RMK A01 T01221003  RH  042%=      5-min Rain = 0
KBY1 140747Z 28005KT 12/M00 A3017 RMK A01 T01221004  RH  042%=      5-min Rain = 0
KBY1 140748Z 29003KT 12/M00 A3017 RMK A01 T01231003  RH  042%=      5-min Rain = 0
KBY1 140749Z 27004KT 12/M00 A3017 RMK A01 T01221003  RH  042%=      5-min Rain = 0
KBY1 140750Z 26007KT 12/M00 A3017 RMK A01 T01221003  RH  042%=      5-min Rain = 0
KBY1 140751Z 27006KT 12/M00 A3017 RMK A01 T01231003  RH  042%=      5-min Rain = 0
KBY1 140752Z 27005KT 12/M00 A3017 RMK A01 T01241004  RH  041%=      5-min Rain = 0
KBY1 140753Z 26005KT 12/M00 A3017 RMK A01 T01241004  RH  041%=      5-min Rain = 0
KBY1 140754Z 26004KT 12/M00 A3017 RMK A01 T01241004  RH  041%=      5-min Rain = 0
KBY1 140755Z 26004KT 12/M00 A3017 RMK A01 T01231004  RH  041%=      5-min Rain = 0
KBY1 140756Z 26003KT 12/M01 A3017 RMK A01 T01211005  RH  042%=      5-min Rain = 0
KBY1 140757Z 26002KT 12/M01 A3017 RMK A01 T01201005  RH  042%=      5-min Rain = 0
KBY1 140758Z 25001KT 12/M00 A3017 RMK A01 T01191004  RH  043%=      5-min Rain = 0
KBY1 140759Z 00000KT 12/M00 A3017 RMK A01 T01181004  RH  043%=      5-min Rain = 0
KBY1 140800Z 31000KT 12/M00 A3017 RMK A01 T01181004  RH  043%=      5-min Rain = 0
KBY1 140801Z 30002KT 12/M00 A3017 RMK A01 T01171004  RH  043%=      5-min Rain = 0
KBY1 140802Z 32002KT 12/M00 A3017 RMK A01 T01171004  RH  043%=      5-min Rain = 0
KBY1 140803Z 32002KT 12/M01 A3017 RMK A01 T01161005  RH  043%=      5-min Rain = 0
KBY1 140804Z 31003KT 12/M01 A3017 RMK A01 T01151005  RH  043%=      5-min Rain = 0
KBY1 140805Z 31002KT 11/M01 A3017 RMK A01 T01141006  RH  043%=      5-min Rain = 0
KBY1 140806Z 30002KT 11/M01 A3017 RMK A01 T01131006  RH  044%=      5-min Rain = 0
KBY1 140807Z 26002KT 11/M01 A3017 RMK A01 T01131005  RH  044%=      5-min Rain = 0
KBY1 140808Z 28003KT 11/M01 A3017 RMK A01 T01141005  RH  044%=      5-min Rain = 0
KBY1 140809Z 28003KT 11/M01 A3017 RMK A01 T01141005  RH  044%=      5-min Rain = 0
KBY1 140810Z 27002KT 12/M01 A3017 RMK A01 T01151005  RH  043%=      5-min Rain = 0
KBY1 140811Z 28002KT 12/M01 A3017 RMK A01 T01161005  RH  043%=      5-min Rain = 0
KBY1 140812Z 28002KT 12/M01 A3017 RMK A01 T01161005  RH  043%=      5-min Rain = 0
KBY1 140813Z 29002KT 12/M01 A3017 RMK A01 T01161006  RH  043%=      5-min Rain = 0
KBY1 140814Z 28002KT 12/M01 A3017 RMK A01 T01161006  RH  043%=      5-min Rain = 0
KBY1 140815Z 27002KT 12/M01 A3017 RMK A01 T01151006  RH  043%=      5-min Rain = 0
KBY1 140816Z 28002KT 11/M01 A3017 RMK A01 T01141007  RH  043%=      5-min Rain = 0
KBY1 140817Z 34002KT 11/M01 A3017 RMK A01 T01121008  RH  043%=      5-min Rain = 0
KBY1 140818Z 36002KT 11/M01 A3017 RMK A01 T01101009  RH  044%=      5-min Rain = 0
KBY1 140819Z 36002KT 11/M01 A3016 RMK A01 T01081009  RH  044%=      5-min Rain = 0
KBY1 140820Z 01003KT 11/M01 A3017 RMK A01 T01061009  RH  045%=      5-min Rain = 0
KBY1 140821Z 00004KT 10/M01 A3017 RMK A01 T01031011  RH  045%=      5-min Rain = 0
KBY1 140822Z 01004KT 10/M01 A3017 RMK A01 T01021009  RH  046%=      5-min Rain = 0
KBY1 140823Z 02004KT 10/M01 A3017 RMK A01 T01001010  RH  046%=      5-min Rain = 0
KBY1 140824Z 01004KT 10/M01 A3017 RMK A01 T00991010  RH  046%=      5-min Rain = 0
KBY1 140825Z 00004KT 10/M01 A3016 RMK A01 T00981011  RH  047%=      5-min Rain = 0
KBY1 140826Z 00004KT 10/M01 A3016 RMK A01 T00971011  RH  047%=      5-min Rain = 0
KBY1 140827Z 00005KT 10/M01 A3016 RMK A01 T00961011  RH  047%=      5-min Rain = 0
KBY1 140828Z 01005KT 10/M01 A3016 RMK A01 T00951011  RH  047%=      5-min Rain = 0
KBY1 140829Z 01004KT 10/M01 A3016 RMK A01 T00951011  RH  048%=      5-min Rain = 0
KBY1 140830Z 01004KT 09/M01 A3016 RMK A01 T00941011  RH  048%=      5-min Rain = 0
KBY1 140831Z 01004KT 09/M01 A3016 RMK A01 T00931012  RH  048%=      5-min Rain = 0
KBY1 140832Z 01004KT 09/M01 A3016 RMK A01 T00931011  RH  048%=      5-min Rain = 0
KBY1 140833Z 02003KT 09/M01 A3016 RMK A01 T00931011  RH  048%=      5-min Rain = 0
KBY1 140834Z 01003KT 09/M01 A3016 RMK A01 T00941011  RH  048%=      5-min Rain = 0
KBY1 140835Z 00003KT 09/M01 A3016 RMK A01 T00941012  RH  048%=      5-min Rain = 0
KBY1 140836Z 00003KT 09/M01 A3016 RMK A01 T00941012  RH  048%=      5-min Rain = 0
KBY1 140837Z 01004KT 09/M01 A3016 RMK A01 T00931012  RH  048%=      5-min Rain = 0
KBY1 140838Z 00004KT 09/M01 A3016 RMK A01 T00931012  RH  048%=      5-min Rain = 0
KBY1 140839Z 36003KT 09/M01 A3016 RMK A01 T00931012  RH  048%=      5-min Rain = 0
KBY1 140840Z 00004KT 09/M01 A3016 RMK A01 T00941012  RH  048%=      5-min Rain = 0
KBY1 140841Z 36004KT 10/M01 A3015 RMK A01 T00951012  RH  047%=      5-min Rain = 0
KBY1 140842Z 36003KT 10/M01 A3015 RMK A01 T00951012  RH  047%=      5-min Rain = 0
KBY1 140843Z 35003KT 09/M01 A3015 RMK A01 T00941013  RH  047%=      5-min Rain = 0
KBY1 140844Z 35003KT 09/M01 A3015 RMK A01 T00941013  RH  047%=      5-min Rain = 0
KBY1 140845Z 35003KT 09/M01 A3015 RMK A01 T00921014  RH  047%=      5-min Rain = 0
KBY1 140846Z 35003KT 09/M01 A3015 RMK A01 T00921013  RH  048%=      5-min Rain = 0
KBY1 140847Z 35002KT 09/M01 A3015 RMK A01 T00921013  RH  048%=      5-min Rain = 0
KBY1 140848Z 35002KT 09/M01 A3015 RMK A01 T00921013  RH  048%=      5-min Rain = 0
KBY1 140849Z 36003KT 09/M01 A3015 RMK A01 T00921013  RH  048%=      5-min Rain = 0
KBY1 140850Z 00003KT 09/M01 A3015 RMK A01 T00921014  RH  048%=      5-min Rain = 0
KBY1 140851Z 01002KT 09/M01 A3015 RMK A01 T00911014  RH  048%=      5-min Rain = 0
KBY1 140852Z 36002KT 09/M01 A3015 RMK A01 T00901014  RH  048%=      5-min Rain = 0
KBY1 140853Z 34002KT 09/M01 A3015 RMK A01 T00901014  RH  048%=      5-min Rain = 0
KBY1 140854Z 34002KT 09/M01 A3015 RMK A01 T00901014  RH  048%=      5-min Rain = 0
KBY1 140855Z 35001KT 09/M01 A3015 RMK A01 T00901014  RH  048%=      5-min Rain = 0
KBY1 140856Z 35001KT 09/M01 A3015 RMK A01 T00911014  RH  048%=      5-min Rain = 0
KBY1 140857Z 33001KT 09/M01 A3015 RMK A01 T00911014  RH  048%=      5-min Rain = 0
KBY1 140858Z 35000KT 09/M02 A3015 RMK A01 T00891016  RH  047%=      5-min Rain = 0
KBY1 140859Z 34000KT 09/M02 A3015 RMK A01 T00881017  RH  048%=      5-min Rain = 0
KBY1 140900Z 33001KT 09/M02 A3015 RMK A01 T00871017  RH  048%=      5-min Rain = 0
KBY1 140901Z 34001KT 09/M02 A3015 RMK A01 T00851018  RH  048%=      5-min Rain = 0
KBY1 140902Z 34001KT 08/M02 A3015 RMK A01 T00841017  RH  049%=      5-min Rain = 0
KBY1 140903Z 36002KT 08/M02 A3015 RMK A01 T00841016  RH  049%=      5-min Rain = 0
KBY1 140904Z 01001KT 08/M02 A3014 RMK A01 T00831016  RH  049%=      5-min Rain = 0
KBY1 140905Z 02001KT 08/M02 A3014 RMK A01 T00831017  RH  050%=      5-min Rain = 0
KBY1 140906Z 02001KT 08/M02 A3014 RMK A01 T00821017  RH  050%=      5-min Rain = 0
KBY1 140907Z 02000KT 08/M02 A3014 RMK A01 T00821017  RH  050%=      5-min Rain = 0
KBY1 140908Z 13000KT 08/M02 A3014 RMK A01 T00811017  RH  050%=      5-min Rain = 0
KBY1 140909Z 13000KT 08/M02 A3014 RMK A01 T00811017  RH  050%=      5-min Rain = 0
KBY1 140910Z 12001KT 08/M02 A3014 RMK A01 T00801017  RH  050%=      5-min Rain = 0
KBY1 140911Z 11001KT 08/M02 A3014 RMK A01 T00791018  RH  050%=      5-min Rain = 0
KBY1 140912Z 13000KT 08/M02 A3014 RMK A01 T00771020  RH  050%=      5-min Rain = 0
KBY1 140913Z 14001KT 08/M02 A3014 RMK A01 T00751019  RH  051%=      5-min Rain = 0
KBY1 140914Z 15001KT 08/M02 A3014 RMK A01 T00751018  RH  052%=      5-min Rain = 0
KBY1 140915Z 15002KT 07/M02 A3014 RMK A01 T00741018  RH  052%=      5-min Rain = 0
KBY1 140916Z 15001KT 07/M02 A3014 RMK A01 T00741018  RH  052%=      5-min Rain = 0
KBY1 140917Z 15001KT 07/M02 A3014 RMK A01 T00741018  RH  052%=      5-min Rain = 0
KBY1 140918Z 15001KT 07/M02 A3014 RMK A01 T00741018  RH  052%=      5-min Rain = 0
KBY1 140919Z 14000KT 07/M02 A3014 RMK A01 T00741018  RH  052%=      5-min Rain = 0
KBY1 140920Z 11000KT 07/M02 A3014 RMK A01 T00741017  RH  052%=      5-min Rain = 0
KBY1 140921Z 00000KT 08/M02 A3014 RMK A01 T00751016  RH  052%=      5-min Rain = 0
KBY1 140922Z 00000KT 08/M02 A3014 RMK A01 T00761017  RH  052%=      5-min Rain = 0
KBY1 140923Z 00000KT 08/M02 A3014 RMK A01 T00751018  RH  051%=      5-min Rain = 0
KBY1 140924Z 00000KT 08/M02 A3014 RMK A01 T00751017  RH  052%=      5-min Rain = 0
KBY1 140925Z 00000KT 08/M02 A3014 RMK A01 T00751018  RH  051%=      5-min Rain = 0
KBY1 140926Z 00000KT 08/M02 A3014 RMK A01 T00761017  RH  052%=      5-min Rain = 0
KBY1 140927Z 00000KT 08/M02 A3014 RMK A01 T00781016  RH  052%=      5-min Rain = 0
KBY1 140928Z 00000KT 08/M02 A3014 RMK A01 T00781016  RH  051%=      5-min Rain = 0
KBY1 140929Z 00000KT 08/M02 A3014 RMK A01 T00791016  RH  051%=      5-min Rain = 0
KBY1 140930Z 30001KT 08/M02 A3014 RMK A01 T00801017  RH  050%=      5-min Rain = 0
KBY1 140931Z 29001KT 08/M02 A3014 RMK A01 T00801018  RH  050%=      5-min Rain = 0
KBY1 140932Z 29001KT 08/M02 A3014 RMK A01 T00801018  RH  050%=      5-min Rain = 0
KBY1 140933Z 29001KT 08/M02 A3014 RMK A01 T00791019  RH  050%=      5-min Rain = 0
KBY1 140934Z 30001KT 08/M02 A3013 RMK A01 T00791018  RH  050%=      5-min Rain = 0
KBY1 140935Z 28000KT 08/M02 A3013 RMK A01 T00791018  RH  050%=      5-min Rain = 0
KBY1 140936Z 00000KT 08/M02 A3013 RMK A01 T00791019  RH  050%=      5-min Rain = 0
KBY1 140937Z 00000KT 08/M02 A3013 RMK A01 T00791019  RH  050%=      5-min Rain = 0
KBY1 140938Z 00000KT 08/M02 A3013 RMK A01 T00791018  RH  050%=      5-min Rain = 0
KBY1 140939Z 00000KT 08/M02 A3013 RMK A01 T00791018  RH  050%=      5-min Rain = 0
KBY1 140940Z 00000KT 08/M02 A3013 RMK A01 T00791018  RH  050%=      5-min Rain = 0
KBY1 140941Z 00000KT 08/M02 A3013 RMK A01 T00791018  RH  050%=      5-min Rain = 0
KBY1 140942Z 00000KT 08/M02 A3013 RMK A01 T00791018  RH  050%=      5-min Rain = 0
KBY1 140943Z 00000KT 08/M02 A3014 RMK A01 T00781019  RH  050%=      5-min Rain = 0
KBY1 140944Z 00000KT 08/M02 A3014 RMK A01 T00781019  RH  050%=      5-min Rain = 0
KBY1 140945Z 23000KT 08/M02 A3014 RMK A01 T00771020  RH  050%=      5-min Rain = 0
KBY1 140946Z 23000KT 08/M02 A3014 RMK A01 T00761020  RH  051%=      5-min Rain = 0
KBY1 140947Z 00000KT 08/M02 A3014 RMK A01 T00751020  RH  051%=      5-min Rain = 0
KBY1 140948Z 00000KT 08/M02 A3014 RMK A01 T00751019  RH  051%=      5-min Rain = 0
KBY1 140949Z 00000KT 07/M02 A3014 RMK A01 T00741019  RH  052%=      5-min Rain = 0
KBY1 140950Z 30000KT 08/M02 A3014 RMK A01 T00751019  RH  051%=      5-min Rain = 0
KBY1 140951Z 30000KT 08/M02 A3014 RMK A01 T00751019  RH  051%=      5-min Rain = 0
KBY1 140952Z 31001KT 08/M02 A3014 RMK A01 T00761019  RH  051%=      5-min Rain = 0
KBY1 140953Z 31001KT 08/M02 A3014 RMK A01 T00761019  RH  051%=      5-min Rain = 0
KBY1 140954Z 32001KT 08/M02 A3014 RMK A01 T00761019  RH  051%=      5-min Rain = 0
KBY1 140955Z 32001KT 08/M02 A3014 RMK A01 T00761019  RH  051%=      5-min Rain = 0
KBY1 140956Z 32001KT 08/M02 A3014 RMK A01 T00761020  RH  051%=      5-min Rain = 0
KBY1 140957Z 32001KT 08/M02 A3014 RMK A01 T00751020  RH  051%=      5-min Rain = 0
KBY1 140958Z 32001KT 07/M02 A3014 RMK A01 T00731020  RH  051%=      5-min Rain = 0
KBY1 140959Z 32001KT 07/M02 A3014 RMK A01 T00731020  RH  052%=      5-min Rain = 0
KBY1 141000Z 32000KT 07/M02 A3014 RMK A01 T00721022  RH  051%=      5-min Rain = 0
KBY1 141001Z 00000KT 07/M02 A3014 RMK A01 T00691024  RH  051%=      5-min Rain = 0
KBY1 141002Z 00000KT 07/M02 A3015 RMK A01 T00681022  RH  053%=      5-min Rain = 0
KBY1 141003Z 00000KT 07/M02 A3015 RMK A01 T00671022  RH  053%=      5-min Rain = 0
KBY1 141004Z 00000KT 07/M02 A3015 RMK A01 T00671022  RH  053%=      5-min Rain = 0
KBY1 141005Z 00000KT 06/M03 A3015 RMK A01 T00641026  RH  053%=      5-min Rain = 0
KBY1 141006Z 29001KT 06/M03 A3015 RMK A01 T00611027  RH  053%=      5-min Rain = 0
KBY1 141007Z 29001KT 06/M02 A3015 RMK A01 T00601024  RH  055%=      5-min Rain = 0
KBY1 141008Z 30002KT 06/M02 A3015 RMK A01 T00601022  RH  056%=      5-min Rain = 0
KBY1 141009Z 30002KT 06/M02 A3015 RMK A01 T00611022  RH  055%=      5-min Rain = 0
KBY1 141010Z 30002KT 06/M02 A3015 RMK A01 T00611024  RH  055%=      5-min Rain = 0
KBY1 141011Z 29002KT 06/M02 A3015 RMK A01 T00611023  RH  055%=      5-min Rain = 0
KBY1 141012Z 29002KT 06/M02 A3015 RMK A01 T00601024  RH  055%=      5-min Rain = 0
KBY1 141013Z 28001KT 06/M03 A3014 RMK A01 T00591025  RH  055%=      5-min Rain = 0
KBY1 141014Z 34000KT 06/M02 A3014 RMK A01 T00571024  RH  056%=      5-min Rain = 0
KBY1 141015Z 34001KT 06/M02 A3014 RMK A01 T00571024  RH  056%=      5-min Rain = 0
KBY1 141016Z 35002KT 06/M03 A3014 RMK A01 T00561025  RH  056%=      5-min Rain = 0
KBY1 141017Z 00001KT 06/M03 A3014 RMK A01 T00551026  RH  056%=      5-min Rain = 0
KBY1 141018Z 01002KT 06/M02 A3014 RMK A01 T00551024  RH  057%=      5-min Rain = 0
KBY1 141019Z 02001KT 06/M02 A3014 RMK A01 T00561022  RH  057%=      5-min Rain = 0
KBY1 141020Z 34002KT 06/M02 A3014 RMK A01 T00591021  RH  057%=      5-min Rain = 0
KBY1 141021Z 33002KT 06/M02 A3014 RMK A01 T00601023  RH  055%=      5-min Rain = 0
KBY1 141022Z 33001KT 06/M03 A3014 RMK A01 T00601025  RH  055%=      5-min Rain = 0
KBY1 141023Z 34000KT 06/M03 A3014 RMK A01 T00571028  RH  054%=      5-min Rain = 0
KBY1 141024Z 35000KT 06/M03 A3014 RMK A01 T00551030  RH  054%=      5-min Rain = 0
KBY1 141025Z 35001KT 05/M03 A3014 RMK A01 T00531030  RH  055%=      5-min Rain = 0
KBY1 141026Z 01001KT 05/M03 A3014 RMK A01 T00521030  RH  055%=      5-min Rain = 0
KBY1 141027Z 00001KT 05/M03 A3014 RMK A01 T00501030  RH  056%=      5-min Rain = 0
KBY1 141028Z 02001KT 05/M03 A3014 RMK A01 T00491029  RH  057%=      5-min Rain = 0
KBY1 141029Z 03001KT 05/M03 A3014 RMK A01 T00481028  RH  058%=      5-min Rain = 0
KBY1 141030Z 07001KT 05/M03 A3014 RMK A01 T00481027  RH  058%=      5-min Rain = 0
KBY1 141031Z 07001KT 05/M03 A3014 RMK A01 T00481027  RH  058%=      5-min Rain = 0
KBY1 141032Z 05002KT 05/M03 A3013 RMK A01 T00471027  RH  058%=      5-min Rain = 0
KBY1 141033Z 06002KT 05/M03 A3013 RMK A01 T00471027  RH  058%=      5-min Rain = 0
KBY1 141034Z 06002KT 05/M03 A3013 RMK A01 T00471027  RH  059%=      5-min Rain = 0
KBY1 141035Z 07001KT 05/M03 A3013 RMK A01 T00471027  RH  058%=      5-min Rain = 0
KBY1 141036Z 05001KT 05/M03 A3013 RMK A01 T00471029  RH  058%=      5-min Rain = 0
KBY1 141037Z 04001KT 05/M03 A3013 RMK A01 T00451031  RH  058%=      5-min Rain = 0
KBY1 141038Z 06001KT 04/M03 A3013 RMK A01 T00441030  RH  059%=      5-min Rain = 0
KBY1 141039Z 08001KT 04/M03 A3013 RMK A01 T00431030  RH  059%=      5-min Rain = 0
KBY1 141040Z 06002KT 04/M03 A3013 RMK A01 T00421030  RH  059%=      5-min Rain = 0
KBY1 141041Z 07001KT 04/M03 A3013 RMK A01 T00431028  RH  060%=      5-min Rain = 0
KBY1 141042Z 07001KT 04/M03 A3013 RMK A01 T00431028  RH  060%=      5-min Rain = 0
KBY1 141043Z 07001KT 04/M03 A3013 RMK A01 T00441027  RH  060%=      5-min Rain = 0
KBY1 141044Z 08001KT 05/M03 A3013 RMK A01 T00461025  RH  060%=      5-min Rain = 0
KBY1 141045Z 08000KT 05/M03 A3013 RMK A01 T00471027  RH  059%=      5-min Rain = 0
KBY1 141046Z 08001KT 05/M03 A3013 RMK A01 T00471027  RH  059%=      5-min Rain = 0
KBY1 141047Z 09001KT 05/M03 A3013 RMK A01 T00471028  RH  059%=      5-min Rain = 0
KBY1 141048Z 08000KT 05/M03 A3013 RMK A01 T00461028  RH  058%=      5-min Rain = 0
KBY1 141049Z 09001KT 04/M03 A3013 RMK A01 T00441030  RH  058%=      5-min Rain = 0
KBY1 141050Z 09001KT 04/M03 A3013 RMK A01 T00431030  RH  059%=      5-min Rain = 0
KBY1 141051Z 08001KT 04/M03 A3013 RMK A01 T00421029  RH  060%=      5-min Rain = 0
KBY1 141052Z 07000KT 04/M03 A3013 RMK A01 T00421029  RH  060%=      5-min Rain = 0
KBY1 141053Z 00000KT 04/M03 A3013 RMK A01 T00421028  RH  060%=      5-min Rain = 0
KBY1 141054Z 00000KT 04/M03 A3013 RMK A01 T00421028  RH  060%=      5-min Rain = 0
KBY1 141055Z 00000KT 04/M03 A3013 RMK A01 T00431027  RH  060%=      5-min Rain = 0
KBY1 141056Z 02001KT 04/M03 A3013 RMK A01 T00441027  RH  060%=      5-min Rain = 0
KBY1 141057Z 36001KT 05/M03 A3013 RMK A01 T00451026  RH  060%=      5-min Rain = 0
KBY1 141058Z 35000KT 05/M03 A3013 RMK A01 T00451027  RH  059%=      5-min Rain = 0
KBY1 141059Z 34000KT 05/M03 A3013 RMK A01 T00451028  RH  059%=      5-min Rain = 0
KBY1 141100Z 00000KT 05/M03 A3013 RMK A01 T00461026  RH  059%=      5-min Rain = 0
KBY1 141101Z 00000KT 05/M03 A3013 RMK A01 T00471026  RH  059%=      5-min Rain = 0
KBY1 141102Z 00000KT 05/M03 A3013 RMK A01 T00491027  RH  058%=      5-min Rain = 0
KBY1 141103Z 35000KT 05/M03 A3012 RMK A01 T00491028  RH  058%=      5-min Rain = 0
KBY1 141104Z 00000KT 05/M03 A3012 RMK A01 T00481029  RH  057%=      5-min Rain = 0
KBY1 141105Z 00000KT 05/M03 A3012 RMK A01 T00461031  RH  057%=      5-min Rain = 0
KBY1 141106Z 00000KT 04/M03 A3012 RMK A01 T00441032  RH  058%=      5-min Rain = 0
KBY1 141107Z 00000KT 04/M03 A3012 RMK A01 T00421031  RH  059%=      5-min Rain = 0
KBY1 141108Z 00000KT 04/M03 A3012 RMK A01 T00421029  RH  060%=      5-min Rain = 0
KBY1 141109Z 21001KT 04/M03 A3012 RMK A01 T00421028  RH  060%=      5-min Rain = 0
KBY1 141110Z 23000KT 04/M03 A3012 RMK A01 T00421028  RH  060%=      5-min Rain = 0
KBY1 141111Z 22000KT 04/M03 A3012 RMK A01 T00421029  RH  060%=      5-min Rain = 0
KBY1 141112Z 26000KT 04/M03 A3012 RMK A01 T00431028  RH  060%=      5-min Rain = 0
KBY1 141113Z 26000KT 04/M03 A3012 RMK A01 T00431027  RH  060%=      5-min Rain = 0
KBY1 141114Z 00000KT 04/M03 A3012 RMK A01 T00441027  RH  060%=      5-min Rain = 0
KBY1 141115Z 30001KT 05/M03 A3012 RMK A01 T00451027  RH  060%=      5-min Rain = 0
KBY1 141116Z 30001KT 05/M03 A3012 RMK A01 T00461027  RH  059%=      5-min Rain = 0
KBY1 141117Z 30002KT 05/M03 A3012 RMK A01 T00461026  RH  060%=      5-min Rain = 0
KBY1 141118Z 30002KT 05/M03 A3012 RMK A01 T00481025  RH  059%=      5-min Rain = 0
KBY1 141119Z 28002KT 05/M03 A3012 RMK A01 T00491025  RH  059%=      5-min Rain = 0
KBY1 141120Z 30001KT 05/M03 A3013 RMK A01 T00491025  RH  058%=      5-min Rain = 0
KBY1 141121Z 30002KT 05/M03 A3012 RMK A01 T00491026  RH  058%=      5-min Rain = 0
KBY1 141122Z 29002KT 05/M03 A3012 RMK A01 T00491025  RH  058%=      5-min Rain = 0
KBY1 141123Z 28001KT 05/M03 A3012 RMK A01 T00501026  RH  058%=      5-min Rain = 0
KBY1 141124Z 29003KT 05/M03 A3012 RMK A01 T00501026  RH  058%=      5-min Rain = 0
KBY1 141125Z 29003KT 06/M03 A3012 RMK A01 T00551026  RH  056%=      5-min Rain = 0
KBY1 141126Z 30003KT 06/M03 A3012 RMK A01 T00621025  RH  053%=      5-min Rain = 0
KBY1 141127Z 30003KT 07/M03 A3012 RMK A01 T00651027  RH  052%=      5-min Rain = 0
KBY1 141128Z 31002KT 07/M03 A3012 RMK A01 T00701027  RH  050%=      5-min Rain = 0
KBY1 141129Z 30002KT 07/M03 A3012 RMK A01 T00711027  RH  050%=      5-min Rain = 0
KBY1 141130Z 30002KT 07/M03 A3012 RMK A01 T00681028  RH  050%=      5-min Rain = 0
KBY1 141131Z 27001KT 06/M03 A3012 RMK A01 T00621030  RH  052%=      5-min Rain = 0
KBY1 141132Z 21001KT 06/M03 A3012 RMK A01 T00581028  RH  054%=      5-min Rain = 0
KBY1 141133Z 20002KT 05/M03 A3012 RMK A01 T00521032  RH  054%=      5-min Rain = 0
KBY1 141134Z 21003KT 05/M04 A3013 RMK A01 T00461035  RH  056%=      5-min Rain = 0
KBY1 141135Z 22002KT 04/M03 A3013 RMK A01 T00431033  RH  058%=      5-min Rain = 0
KBY1 141136Z 22002KT 04/M03 A3013 RMK A01 T00431031  RH  059%=      5-min Rain = 0
KBY1 141137Z 21002KT 04/M03 A3012 RMK A01 T00431030  RH  059%=      5-min Rain = 0
KBY1 141138Z 22001KT 04/M03 A3012 RMK A01 T00431030  RH  059%=      5-min Rain = 0
KBY1 141139Z 24001KT 04/M03 A3012 RMK A01 T00431029  RH  059%=      5-min Rain = 0
KBY1 141140Z 26001KT 04/M03 A3012 RMK A01 T00441028  RH  060%=      5-min Rain = 0
KBY1 141141Z 23001KT 05/M03 A3012 RMK A01 T00451027  RH  060%=      5-min Rain = 0
KBY1 141142Z 27001KT 05/M03 A3012 RMK A01 T00461026  RH  060%=      5-min Rain = 0
KBY1 141143Z 29001KT 05/M03 A3012 RMK A01 T00461027  RH  059%=      5-min Rain = 0
KBY1 141144Z 29002KT 05/M03 A3012 RMK A01 T00471027  RH  059%=      5-min Rain = 0
KBY1 141145Z 28001KT 05/M03 A3012 RMK A01 T00481029  RH  057%=      5-min Rain = 0
KBY1 141146Z 30001KT 05/M03 A3012 RMK A01 T00481030  RH  057%=      5-min Rain = 0
KBY1 141147Z 30001KT 05/M03 A3012 RMK A01 T00461030  RH  058%=      5-min Rain = 0
KBY1 141148Z 00000KT 05/M03 A3012 RMK A01 T00451029  RH  058%=      5-min Rain = 0
KBY1 141149Z 35000KT 05/M03 A3012 RMK A01 T00451028  RH  059%=      5-min Rain = 0
KBY1 141150Z 35000KT 04/M03 A3012 RMK A01 T00441028  RH  059%=      5-min Rain = 0
KBY1 141151Z 00000KT 04/M03 A3012 RMK A01 T00441028  RH  059%=      5-min Rain = 0
KBY1 141152Z 00000KT 04/M03 A3012 RMK A01 T00441029  RH  059%=      5-min Rain = 0
KBY1 141153Z 18000KT 04/M03 A3012 RMK A01 T00431029  RH  059%=      5-min Rain = 0
KBY1 141154Z 00000KT 04/M03 A3012 RMK A01 T00421029  RH  060%=      5-min Rain = 0
KBY1 141155Z 00000KT 04/M03 A3012 RMK A01 T00421030  RH  060%=      5-min Rain = 0
KBY1 141156Z 18000KT 04/M03 A3012 RMK A01 T00411029  RH  060%=      5-min Rain = 0
KBY1 141157Z 18000KT 04/M03 A3012 RMK A01 T00411029  RH  060%=      5-min Rain = 0
KBY1 141158Z 00000KT 04/M03 A3012 RMK A01 T00411029  RH  060%=      5-min Rain = 0
KBY1 141159Z 00000KT 04/M03 A3012 RMK A01 T00411029  RH  061%=      5-min Rain = 0
KBY1 141200Z 00000KT 04/M03 A3012 RMK A01 T00401029  RH  061%=      5-min Rain = 0
KBY1 141201Z 00000KT 04/M03 A3012 RMK A01 T00401029  RH  061%=      5-min Rain = 0
KBY1 141202Z 00000KT 04/M03 A3012 RMK A01 T00401030  RH  060%=      5-min Rain = 0
KBY1 141203Z 00000KT 04/M03 A3012 RMK A01 T00391029  RH  061%=      5-min Rain = 0
KBY1 141204Z 00000KT 04/M03 A3012 RMK A01 T00401029  RH  061%=      5-min Rain = 0
KBY1 141205Z 36001KT 04/M03 A3012 RMK A01 T00401028  RH  061%=      5-min Rain = 0
KBY1 141206Z 35001KT 04/M03 A3012 RMK A01 T00401029  RH  060%=      5-min Rain = 0
KBY1 141207Z 34002KT 04/M03 A3012 RMK A01 T00411030  RH  060%=      5-min Rain = 0
KBY1 141208Z 35002KT 04/M03 A3012 RMK A01 T00411030  RH  060%=      5-min Rain = 0
KBY1 141209Z 34002KT 04/M03 A3012 RMK A01 T00411030  RH  060%=      5-min Rain = 0
KBY1 141210Z 33002KT 04/M03 A3012 RMK A01 T00411030  RH  060%=      5-min Rain = 0
KBY1 141211Z 33002KT 04/M03 A3012 RMK A01 T00411030  RH  060%=      5-min Rain = 0
KBY1 141212Z 32002KT 04/M03 A3012 RMK A01 T00411029  RH  060%=      5-min Rain = 0
KBY1 141213Z 31001KT 04/M03 A3012 RMK A01 T00411029  RH  060%=      5-min Rain = 0
KBY1 141214Z 31001KT 04/M03 A3012 RMK A01 T00411029  RH  060%=      5-min Rain = 0
KBY1 141215Z 34001KT 04/M03 A3012 RMK A01 T00411029  RH  061%=      5-min Rain = 0
KBY1 141216Z 25000KT 04/M03 A3012 RMK A01 T00421028  RH  060%=      5-min Rain = 0
KBY1 141217Z 23001KT 04/M03 A3012 RMK A01 T00421032  RH  059%=      5-min Rain = 0
KBY1 141218Z 22002KT 04/M03 A3012 RMK A01 T00391033  RH  059%=      5-min Rain = 0
KBY1 141219Z 25001KT 04/M03 A3012 RMK A01 T00381032  RH  060%=      5-min Rain = 0
KBY1 141220Z 23001KT 04/M03 A3012 RMK A01 T00391031  RH  060%=      5-min Rain = 0
KBY1 141221Z 22002KT 04/M03 A3012 RMK A01 T00411031  RH  059%=      5-min Rain = 0
KBY1 141222Z 22001KT 04/M03 A3012 RMK A01 T00401033  RH  059%=      5-min Rain = 0
KBY1 141223Z 23001KT 04/M03 A3012 RMK A01 T00391033  RH  059%=      5-min Rain = 0
KBY1 141224Z 22001KT 04/M03 A3012 RMK A01 T00391032  RH  059%=      5-min Rain = 0
KBY1 141225Z 20001KT 04/M03 A3012 RMK A01 T00391033  RH  060%=      5-min Rain = 0
KBY1 141226Z 20001KT 04/M03 A3012 RMK A01 T00381032  RH  060%=      5-min Rain = 0
KBY1 141227Z 20001KT 04/M03 A3012 RMK A01 T00381033  RH  060%=      5-min Rain = 0
KBY1 141228Z 19001KT 04/M03 A3012 RMK A01 T00371033  RH  060%=      5-min Rain = 0
KBY1 141229Z 18001KT 04/M03 A3012 RMK A01 T00371032  RH  060%=      5-min Rain = 0
KBY1 141230Z 17001KT 04/M03 A3011 RMK A01 T00371032  RH  061%=      5-min Rain = 0
KBY1 141231Z 18001KT 04/M03 A3011 RMK A01 T00361032  RH  061%=      5-min Rain = 0
KBY1 141232Z 19001KT 04/M03 A3011 RMK A01 T00361033  RH  061%=      5-min Rain = 0
KBY1 141233Z 19001KT 04/M03 A3011 RMK A01 T00351032  RH  061%=      5-min Rain = 0
KBY1 141234Z 19001KT 04/M03 A3011 RMK A01 T00361032  RH  062%=      5-min Rain = 0
KBY1 141235Z 21001KT 04/M03 A3012 RMK A01 T00351031  RH  062%=      5-min Rain = 0
KBY1 141236Z 22001KT 04/M03 A3012 RMK A01 T00351031  RH  062%=      5-min Rain = 0
KBY1 141237Z 22001KT 04/M03 A3012 RMK A01 T00361031  RH  061%=      5-min Rain = 0
KBY1 141238Z 23000KT 04/M03 A3012 RMK A01 T00371031  RH  061%=      5-min Rain = 0
KBY1 141239Z 00000KT 04/M03 A3012 RMK A01 T00381033  RH  060%=      5-min Rain = 0
KBY1 141240Z 00000KT 04/M03 A3012 RMK A01 T00381034  RH  059%=      5-min Rain = 0
KBY1 141241Z 00000KT 04/M03 A3011 RMK A01 T00381034  RH  060%=      5-min Rain = 0
KBY1 141242Z 00000KT 04/M03 A3011 RMK A01 T00381033  RH  060%=      5-min Rain = 0
KBY1 141243Z 17000KT 04/M03 A3012 RMK A01 T00371033  RH  060%=      5-min Rain = 0
KBY1 141244Z 17000KT 04/M03 A3012 RMK A01 T00371033  RH  060%=      5-min Rain = 0
KBY1 141245Z 21000KT 04/M03 A3012 RMK A01 T00361033  RH  060%=      5-min Rain = 0
KBY1 141246Z 22001KT 04/M03 A3012 RMK A01 T00361032  RH  061%=      5-min Rain = 0
KBY1 141247Z 22001KT 04/M03 A3012 RMK A01 T00361032  RH  061%=      5-min Rain = 0
KBY1 141248Z 22001KT 04/M03 A3012 RMK A01 T00361032  RH  061%=      5-min Rain = 0
KBY1 141249Z 22001KT 04/M03 A3012 RMK A01 T00361033  RH  061%=      5-min Rain = 0
KBY1 141250Z 21001KT 04/M03 A3012 RMK A01 T00361034  RH  061%=      5-min Rain = 0
KBY1 141251Z 20001KT 04/M04 A3012 RMK A01 T00351035  RH  060%=      5-min Rain = 0
KBY1 141252Z 20000KT 04/M03 A3012 RMK A01 T00351033  RH  061%=      5-min Rain = 0
KBY1 141253Z 00000KT 04/M03 A3012 RMK A01 T00351033  RH  061%=      5-min Rain = 0
KBY1 141254Z 00000KT 04/M03 A3012 RMK A01 T00351032  RH  061%=      5-min Rain = 0
KBY1 141255Z 00000KT 04/M03 A3011 RMK A01 T00361032  RH  061%=      5-min Rain = 0
KBY1 141256Z 00000KT 04/M03 A3011 RMK A01 T00371030  RH  062%=      5-min Rain = 0
KBY1 141257Z 00000KT 04/M03 A3011 RMK A01 T00381031  RH  061%=      5-min Rain = 0
KBY1 141258Z 00000KT 04/M03 A3011 RMK A01 T00381032  RH  060%=      5-min Rain = 0
KBY1 141259Z 00000KT 04/M03 A3011 RMK A01 T00381033  RH  060%=      5-min Rain = 0
KBY1 141300Z 00000KT 04/M03 A3011 RMK A01 T00381033  RH  060%=      5-min Rain = 0
KBY1 141301Z 00000KT 04/M03 A3011 RMK A01 T00391032  RH  060%=      5-min Rain = 0
KBY1 141302Z 00000KT 04/M03 A3011 RMK A01 T00401031  RH  060%=      5-min Rain = 0
KBY1 141303Z 00000KT 04/M03 A3011 RMK A01 T00411032  RH  059%=      5-min Rain = 0
KBY1 141304Z 00000KT 04/M03 A3011 RMK A01 T00411034  RH  058%=      5-min Rain = 0
KBY1 141305Z 00000KT 04/M03 A3011 RMK A01 T00411034  RH  058%=      5-min Rain = 0
KBY1 141306Z 00000KT 04/M03 A3011 RMK A01 T00411034  RH  058%=      5-min Rain = 0
KBY1 141307Z 00000KT 04/M03 A3011 RMK A01 T00411034  RH  058%=      5-min Rain = 0
KBY1 141308Z 00000KT 04/M03 A3011 RMK A01 T00411034  RH  058%=      5-min Rain = 0
KBY1 141309Z 00000KT 04/M03 A3011 RMK A01 T00411034  RH  058%=      5-min Rain = 0
KBY1 141310Z 00000KT 04/M04 A3011 RMK A01 T00401035  RH  058%=      5-min Rain = 0
KBY1 141311Z 00000KT 04/M04 A3011 RMK A01 T00401035  RH  058%=      5-min Rain = 0
KBY1 141312Z 00000KT 04/M04 A3011 RMK A01 T00391038  RH  058%=      5-min Rain = 0
KBY1 141313Z 00000KT 04/M04 A3012 RMK A01 T00361038  RH  058%=      5-min Rain = 0
KBY1 141314Z 00000KT 04/M04 A3012 RMK A01 T00361036  RH  059%=      5-min Rain = 0
KBY1 141315Z 00000KT 04/M04 A3012 RMK A01 T00351036  RH  060%=      5-min Rain = 0
KBY1 141316Z 00000KT 03/M04 A3012 RMK A01 T00341036  RH  060%=      5-min Rain = 0
KBY1 141317Z 00000KT 03/M04 A3012 RMK A01 T00341036  RH  060%=      5-min Rain = 0
KBY1 141318Z 00000KT 03/M04 A3012 RMK A01 T00341037  RH  060%=      5-min Rain = 0
KBY1 141319Z 00000KT 03/M04 A3012 RMK A01 T00331038  RH  060%=      5-min Rain = 0
KBY1 141320Z 00000KT 03/M04 A3012 RMK A01 T00321038  RH  060%=      5-min Rain = 0
KBY1 141321Z 06000KT 03/M04 A3012 RMK A01 T00331037  RH  060%=      5-min Rain = 0
KBY1 141322Z 06001KT 03/M04 A3012 RMK A01 T00311039  RH  060%=      5-min Rain = 0
KBY1 141323Z 06001KT 03/M04 A3012 RMK A01 T00291040  RH  060%=      5-min Rain = 0
KBY1 141324Z 04002KT 03/M04 A3012 RMK A01 T00271039  RH  062%=      5-min Rain = 0
KBY1 141325Z 04002KT 03/M04 A3011 RMK A01 T00261037  RH  063%=      5-min Rain = 0
KBY1 141326Z 05002KT 03/M04 A3011 RMK A01 T00271035  RH  063%=      5-min Rain = 0
KBY1 141327Z 06002KT 03/M03 A3011 RMK A01 T00281034  RH  064%=      5-min Rain = 0
KBY1 141328Z 05002KT 03/M03 A3011 RMK A01 T00291034  RH  063%=      5-min Rain = 0
KBY1 141329Z 05002KT 03/M04 A3011 RMK A01 T00291035  RH  063%=      5-min Rain = 0
KBY1 141330Z 05002KT 03/M03 A3011 RMK A01 T00291033  RH  064%=      5-min Rain = 0
KBY1 141331Z 05002KT 03/M03 A3011 RMK A01 T00311031  RH  064%=      5-min Rain = 0
KBY1 141332Z 06002KT 03/M03 A3011 RMK A01 T00321030  RH  064%=      5-min Rain = 0
KBY1 141333Z 06002KT 03/M03 A3011 RMK A01 T00331029  RH  063%=      5-min Rain = 0
KBY1 141334Z 06002KT 03/M03 A3011 RMK A01 T00341029  RH  063%=      5-min Rain = 0
KBY1 141335Z 06001KT 03/M03 A3012 RMK A01 T00341029  RH  063%=      5-min Rain = 0
KBY1 141336Z 06001KT 04/M03 A3012 RMK A01 T00351029  RH  063%=      5-min Rain = 0
KBY1 141337Z 06001KT 04/M03 A3012 RMK A01 T00361027  RH  064%=      5-min Rain = 0
KBY1 141338Z 07001KT 04/M03 A3012 RMK A01 T00361027  RH  063%=      5-min Rain = 0
KBY1 141339Z 06001KT 04/M03 A3012 RMK A01 T00361028  RH  063%=      5-min Rain = 0
KBY1 141340Z 06001KT 04/M03 A3012 RMK A01 T00361029  RH  063%=      5-min Rain = 0
KBY1 141341Z 06001KT 04/M03 A3012 RMK A01 T00361028  RH  063%=      5-min Rain = 0
KBY1 141342Z 04001KT 04/M03 A3012 RMK A01 T00351031  RH  062%=      5-min Rain = 0
KBY1 141343Z 06001KT 03/M03 A3012 RMK A01 T00331033  RH  062%=      5-min Rain = 0
KBY1 141344Z 07001KT 03/M03 A3012 RMK A01 T00321032  RH  063%=      5-min Rain = 0
KBY1 141345Z 07001KT 03/M03 A3012 RMK A01 T00311031  RH  063%=      5-min Rain = 0
KBY1 141346Z 09001KT 03/M03 A3012 RMK A01 T00311031  RH  064%=      5-min Rain = 0
KBY1 141347Z 08001KT 03/M03 A3012 RMK A01 T00311031  RH  064%=      5-min Rain = 0
KBY1 141348Z 06001KT 03/M03 A3012 RMK A01 T00311030  RH  064%=      5-min Rain = 0
KBY1 141349Z 06001KT 03/M03 A3012 RMK A01 T00311030  RH  064%=      5-min Rain = 0
KBY1 141350Z 07001KT 03/M03 A3012 RMK A01 T00301031  RH  064%=      5-min Rain = 0
KBY1 141351Z 08001KT 03/M03 A3012 RMK A01 T00291032  RH  064%=      5-min Rain = 0
KBY1 141352Z 07001KT 03/M03 A3013 RMK A01 T00291032  RH  064%=      5-min Rain = 0
KBY1 141353Z 06001KT 03/M03 A3013 RMK A01 T00281033  RH  064%=      5-min Rain = 0
KBY1 141354Z 06001KT 03/M03 A3013 RMK A01 T00271032  RH  065%=      5-min Rain = 0
KBY1 141355Z 05002KT 03/M03 A3013 RMK A01 T00271032  RH  065%=      5-min Rain = 0
KBY1 141356Z 05001KT 03/M03 A3013 RMK A01 T00281031  RH  065%=      5-min Rain = 0
KBY1 141357Z 05001KT 03/M03 A3012 RMK A01 T00281030  RH  066%=      5-min Rain = 0
KBY1 141358Z 05001KT 03/M03 A3012 RMK A01 T00301028  RH  066%=      5-min Rain = 0
KBY1 141359Z 05002KT 03/M03 A3012 RMK A01 T00311028  RH  065%=      5-min Rain = 0
KBY1 141400Z 04002KT 03/M03 A3012 RMK A01 T00321027  RH  065%=      5-min Rain = 0
KBY1 141401Z 05002KT 03/M03 A3012 RMK A01 T00341027  RH  064%=      5-min Rain = 0
KBY1 141402Z 05002KT 04/M03 A3012 RMK A01 T00351028  RH  064%=      5-min Rain = 0
KBY1 141403Z 06002KT 04/M03 A3012 RMK A01 T00351029  RH  063%=      5-min Rain = 0
KBY1 141404Z 06001KT 04/M03 A3012 RMK A01 T00351028  RH  063%=      5-min Rain = 0
KBY1 141405Z 07001KT 04/M03 A3012 RMK A01 T00351028  RH  063%=      5-min Rain = 0
KBY1 141406Z 07002KT 04/M03 A3012 RMK A01 T00361027  RH  063%=      5-min Rain = 0
KBY1 141407Z 05001KT 04/M03 A3012 RMK A01 T00371027  RH  063%=      5-min Rain = 0
KBY1 141408Z 05001KT 04/M03 A3012 RMK A01 T00371027  RH  063%=      5-min Rain = 0
KBY1 141409Z 07002KT 04/M03 A3012 RMK A01 T00381026  RH  063%=      5-min Rain = 0
KBY1 141410Z 06001KT 04/M03 A3012 RMK A01 T00391027  RH  062%=      5-min Rain = 0
KBY1 141411Z 05001KT 04/M03 A3012 RMK A01 T00391028  RH  062%=      5-min Rain = 0
KBY1 141412Z 05001KT 04/M03 A3012 RMK A01 T00391028  RH  062%=      5-min Rain = 0
KBY1 141413Z 05001KT 04/M03 A3012 RMK A01 T00391028  RH  062%=      5-min Rain = 0
KBY1 141414Z 05001KT 04/M03 A3012 RMK A01 T00391029  RH  061%=      5-min Rain = 0
KBY1 141415Z 05000KT 04/M03 A3012 RMK A01 T00391031  RH  061%=      5-min Rain = 0
KBY1 141416Z 00000KT 04/M03 A3012 RMK A01 T00381031  RH  061%=      5-min Rain = 0
KBY1 141417Z 00000KT 04/M03 A3012 RMK A01 T00361033  RH  061%=      5-min Rain = 0
KBY1 141418Z 00000KT 04/M03 A3012 RMK A01 T00351033  RH  061%=      5-min Rain = 0
KBY1 141419Z 00000KT 03/M04 A3012 RMK A01 T00341036  RH  060%=      5-min Rain = 0
KBY1 141420Z 00000KT 03/M04 A3012 RMK A01 T00301040  RH  060%=      5-min Rain = 0
KBY1 141421Z 00000KT 03/M04 A3012 RMK A01 T00271040  RH  061%=      5-min Rain = 0
KBY1 141422Z 02001KT 03/M04 A3012 RMK A01 T00261039  RH  062%=      5-min Rain = 0
KBY1 141423Z 01001KT 03/M04 A3012 RMK A01 T00261039  RH  062%=      5-min Rain = 0
KBY1 141424Z 00000KT 03/M04 A3012 RMK A01 T00251039  RH  063%=      5-min Rain = 0
KBY1 141425Z 01001KT 02/M04 A3012 RMK A01 T00231038  RH  064%=      5-min Rain = 0
KBY1 141426Z 36001KT 02/M04 A3012 RMK A01 T00231037  RH  065%=      5-min Rain = 0
KBY1 141427Z 33000KT 02/M04 A3012 RMK A01 T00231036  RH  065%=      5-min Rain = 0
KBY1 141428Z 02000KT 02/M04 A3012 RMK A01 T00241035  RH  065%=      5-min Rain = 0
KBY1 141429Z 02001KT 02/M03 A3012 RMK A01 T00241034  RH  065%=      5-min Rain = 0
KBY1 141430Z 01000KT 03/M03 A3012 RMK A01 T00261033  RH  065%=      5-min Rain = 0
KBY1 141431Z 01001KT 03/M03 A3012 RMK A01 T00271033  RH  065%=      5-min Rain = 0
KBY1 141432Z 02000KT 03/M03 A3012 RMK A01 T00281032  RH  064%=      5-min Rain = 0
KBY1 141433Z 18001KT 03/M03 A3012 RMK A01 T00301031  RH  064%=      5-min Rain = 0
KBY1 141434Z 18001KT 03/M03 A3013 RMK A01 T00301031  RH  064%=      5-min Rain = 0
KBY1 141435Z 18002KT 03/M03 A3013 RMK A01 T00311031  RH  064%=      5-min Rain = 0
KBY1 141436Z 19003KT 03/M03 A3013 RMK A01 T00321031  RH  064%=      5-min Rain = 0
KBY1 141437Z 18002KT 03/M03 A3013 RMK A01 T00321031  RH  063%=      5-min Rain = 0
KBY1 141438Z 18001KT 03/M03 A3013 RMK A01 T00331031  RH  063%=      5-min Rain = 0
KBY1 141439Z 20001KT 03/M03 A3013 RMK A01 T00331031  RH  063%=      5-min Rain = 0
KBY1 141440Z 19001KT 03/M03 A3013 RMK A01 T00341031  RH  063%=      5-min Rain = 0
KBY1 141441Z 16001KT 04/M03 A3012 RMK A01 T00351030  RH  062%=      5-min Rain = 0
KBY1 141442Z 12000KT 04/M03 A3012 RMK A01 T00351030  RH  062%=      5-min Rain = 0
KBY1 141443Z 26000KT 04/M03 A3012 RMK A01 T00361030  RH  062%=      5-min Rain = 0
KBY1 141444Z 26000KT 04/M03 A3012 RMK A01 T00361030  RH  062%=      5-min Rain = 0
KBY1 141445Z 28000KT 04/M03 A3012 RMK A01 T00371031  RH  062%=      5-min Rain = 0
KBY1 141446Z 00000KT 04/M03 A3012 RMK A01 T00371030  RH  061%=      5-min Rain = 0
KBY1 141447Z 00000KT 04/M03 A3012 RMK A01 T00381030  RH  061%=      5-min Rain = 0
KBY1 141448Z 00000KT 04/M03 A3012 RMK A01 T00391029  RH  061%=      5-min Rain = 0
KBY1 141449Z 00000KT 04/M03 A3012 RMK A01 T00401029  RH  061%=      5-min Rain = 0
KBY1 141450Z 20001KT 04/M03 A3012 RMK A01 T00401029  RH  060%=      5-min Rain = 0
KBY1 141451Z 20001KT 04/M03 A3012 RMK A01 T00411029  RH  060%=      5-min Rain = 0
KBY1 141452Z 00000KT 04/M03 A3012 RMK A01 T00421029  RH  060%=      5-min Rain = 0
KBY1 141453Z 16000KT 04/M03 A3012 RMK A01 T00431028  RH  060%=      5-min Rain = 0
KBY1 141454Z 16001KT 04/M03 A3012 RMK A01 T00441028  RH  060%=      5-min Rain = 0
KBY1 141455Z 24000KT 05/M03 A3012 RMK A01 T00451028  RH  059%=      5-min Rain = 0
KBY1 141456Z 24001KT 05/M03 A3012 RMK A01 T00451029  RH  058%=      5-min Rain = 0
KBY1 141457Z 21001KT 05/M03 A3013 RMK A01 T00451029  RH  058%=      5-min Rain = 0
KBY1 141458Z 21001KT 05/M03 A3013 RMK A01 T00461030  RH  058%=      5-min Rain = 0
KBY1 141459Z 20000KT 05/M03 A3013 RMK A01 T00471029  RH  058%=      5-min Rain = 0
KBY1 141500Z 20000KT 05/M03 A3013 RMK A01 T00481029  RH  057%=      5-min Rain = 0
KBY1 141501Z 00000KT 05/M03 A3013 RMK A01 T00491029  RH  057%=      5-min Rain = 0
KBY1 141502Z 29000KT 05/M03 A3013 RMK A01 T00511029  RH  056%=      5-min Rain = 0
KBY1 141503Z 30001KT 05/M03 A3013 RMK A01 T00531029  RH  056%=      5-min Rain = 0
KBY1 141504Z 34001KT 05/M03 A3013 RMK A01 T00531029  RH  055%=      5-min Rain = 0
KBY1 141505Z 35001KT 06/M03 A3013 RMK A01 T00551030  RH  054%=      5-min Rain = 0
KBY1 141506Z 00000KT 06/M03 A3013 RMK A01 T00571030  RH  053%=      5-min Rain = 0
KBY1 141507Z 06000KT 06/M03 A3013 RMK A01 T00601029  RH  053%=      5-min Rain = 0
KBY1 141508Z 12000KT 06/M03 A3013 RMK A01 T00621030  RH  052%=      5-min Rain = 0
KBY1 141509Z 15000KT 06/M03 A3013 RMK A01 T00641029  RH  051%=      5-min Rain = 0
KBY1 141510Z 00000KT 07/M03 A3013 RMK A01 T00651029  RH  051%=      5-min Rain = 0
KBY1 141511Z 20000KT 07/M03 A3013 RMK A01 T00661029  RH  051%=      5-min Rain = 0
KBY1 141512Z 20000KT 07/M03 A3013 RMK A01 T00661030  RH  051%=      5-min Rain = 0
KBY1 141513Z 00000KT 07/M03 A3013 RMK A01 T00671029  RH  050%=      5-min Rain = 0
KBY1 141514Z 12000KT 07/M03 A3013 RMK A01 T00681028  RH  050%=      5-min Rain = 0
KBY1 141515Z 12001KT 07/M03 A3013 RMK A01 T00711027  RH  050%=      5-min Rain = 0
KBY1 141516Z 14000KT 07/M03 A3013 RMK A01 T00721028  RH  049%=      5-min Rain = 0
KBY1 141517Z 00000KT 07/M03 A3013 RMK A01 T00731028  RH  049%=      5-min Rain = 0
KBY1 141518Z 31001KT 07/M03 A3013 RMK A01 T00741029  RH  048%=      5-min Rain = 0
KBY1 141519Z 21000KT 08/M03 A3013 RMK A01 T00751028  RH  048%=      5-min Rain = 0
KBY1 141520Z 15000KT 08/M03 A3013 RMK A01 T00781026  RH  047%=      5-min Rain = 0
KBY1 141521Z 11001KT 08/M03 A3013 RMK A01 T00811025  RH  047%=      5-min Rain = 0
KBY1 141522Z 14002KT 08/M03 A3013 RMK A01 T00821026  RH  047%=      5-min Rain = 0
KBY1 141523Z 15002KT 08/M03 A3013 RMK A01 T00821026  RH  047%=      5-min Rain = 0
KBY1 141524Z 11001KT 08/M03 A3013 RMK A01 T00831026  RH  046%=      5-min Rain = 0
KBY1 141525Z 12000KT 08/M03 A3013 RMK A01 T00831027  RH  046%=      5-min Rain = 0
KBY1 141526Z 00000KT 08/M03 A3013 RMK A01 T00831027  RH  046%=      5-min Rain = 0
KBY1 141527Z 00000KT 09/M03 A3013 RMK A01 T00851026  RH  046%=      5-min Rain = 0
KBY1 141528Z 07001KT 09/M03 A3013 RMK A01 T00871027  RH  045%=      5-min Rain = 0
KBY1 141529Z 07003KT 09/M03 A3013 RMK A01 T00871027  RH  045%=      5-min Rain = 0
KBY1 141530Z 09001KT 09/M03 A3013 RMK A01 T00871027  RH  045%=      5-min Rain = 0
KBY1 141531Z 16001KT 09/M03 A3013 RMK A01 T00881027  RH  044%=      5-min Rain = 0
KBY1 141532Z 10001KT 09/M03 A3013 RMK A01 T00901026  RH  044%=      5-min Rain = 0
KBY1 141533Z 09002KT 09/M03 A3013 RMK A01 T00901026  RH  044%=      5-min Rain = 0
KBY1 141534Z 09001KT 09/M03 A3013 RMK A01 T00911026  RH  044%=      5-min Rain = 0
KBY1 141535Z 08000KT 09/M03 A3013 RMK A01 T00931025  RH  044%=      5-min Rain = 0
KBY1 141536Z 09001KT 09/M03 A3013 RMK A01 T00931026  RH  043%=      5-min Rain = 0
KBY1 141537Z 08000KT 09/M03 A3013 RMK A01 T00931027  RH  043%=      5-min Rain = 0
KBY1 141538Z 00000KT 09/M03 A3013 RMK A01 T00931027  RH  043%=      5-min Rain = 0
KBY1 141539Z 00000KT 10/M03 A3013 RMK A01 T00961027  RH  042%=      5-min Rain = 0
KBY1 141540Z 00000KT 10/M03 A3013 RMK A01 T00991027  RH  041%=      5-min Rain = 0
KBY1 141541Z 23000KT 10/M03 A3013 RMK A01 T01011026  RH  041%=      5-min Rain = 0
KBY1 141542Z 23001KT 10/M03 A3013 RMK A01 T01021027  RH  040%=      5-min Rain = 0
KBY1 141543Z 19001KT 10/M03 A3013 RMK A01 T01031027  RH  040%=      5-min Rain = 0
KBY1 141544Z 20000KT 11/M03 A3013 RMK A01 T01051026  RH  040%=      5-min Rain = 0
KBY1 141545Z 22001KT 11/M03 A3013 RMK A01 T01071026  RH  039%=      5-min Rain = 0
KBY1 141546Z 20002KT 11/M03 A3013 RMK A01 T01081026  RH  039%=      5-min Rain = 0
KBY1 141547Z 21002KT 11/M03 A3013 RMK A01 T01081026  RH  039%=      5-min Rain = 0
KBY1 141548Z 21002KT 11/M03 A3013 RMK A01 T01091025  RH  039%=      5-min Rain = 0
KBY1 141549Z 20002KT 11/M03 A3013 RMK A01 T01101025  RH  039%=      5-min Rain = 0
KBY1 141550Z 20003KT 11/M02 A3013 RMK A01 T01101023  RH  039%=      5-min Rain = 0
KBY1 141551Z 19002KT 11/M02 A3013 RMK A01 T01111023  RH  039%=      5-min Rain = 0
KBY1 141552Z 21001KT 11/M02 A3012 RMK A01 T01121024  RH  038%=      5-min Rain = 0
KBY1 141553Z 17001KT 11/M02 A3012 RMK A01 T01141024  RH  038%=      5-min Rain = 0
KBY1 141554Z 17002KT 12/M02 A3012 RMK A01 T01151023  RH  038%=      5-min Rain = 0
KBY1 141555Z 16002KT 12/M02 A3012 RMK A01 T01171024  RH  038%=      5-min Rain = 0
KBY1 141556Z 16002KT 12/M03 A3012 RMK A01 T01171025  RH  037%=      5-min Rain = 0
KBY1 141557Z 16002KT 12/M03 A3012 RMK A01 T01181026  RH  037%=      5-min Rain = 0
KBY1 141558Z 18001KT 12/M03 A3012 RMK A01 T01191026  RH  036%=      5-min Rain = 0
KBY1 141559Z 19001KT 12/M03 A3012 RMK A01 T01201028  RH  036%=      5-min Rain = 0
KBY1 141600Z 20001KT 12/M03 A3012 RMK A01 T01201028  RH  035%=      5-min Rain = 0
KBY1 141601Z 19001KT 12/M03 A3012 RMK A01 T01211027  RH  036%=      5-min Rain = 0
KBY1 141602Z 17002KT 12/M03 A3012 RMK A01 T01221025  RH  036%=      5-min Rain = 0
KBY1 141603Z 16002KT 12/M03 A3012 RMK A01 T01231027  RH  035%=      5-min Rain = 0
KBY1 141604Z 14001KT 12/M03 A3012 RMK A01 T01241030  RH  034%=      5-min Rain = 0
KBY1 141605Z 18001KT 12/M03 A3012 RMK A01 T01241031  RH  034%=      5-min Rain = 0
KBY1 141606Z 17002KT 12/M03 A3012 RMK A01 T01241027  RH  035%=      5-min Rain = 0
KBY1 141607Z 19002KT 13/M03 A3012 RMK A01 T01251026  RH  035%=      5-min Rain = 0
KBY1 141608Z 19002KT 13/M03 A3013 RMK A01 T01251026  RH  035%=      5-min Rain = 0
KBY1 141609Z 18002KT 13/M03 A3013 RMK A01 T01261028  RH  034%=      5-min Rain = 0
KBY1 141610Z 17001KT 13/M03 A3013 RMK A01 T01261031  RH  033%=      5-min Rain = 0
KBY1 141611Z 21001KT 13/M03 A3013 RMK A01 T01251031  RH  033%=      5-min Rain = 0
KBY1 141612Z 27000KT 13/M03 A3013 RMK A01 T01261030  RH  034%=      5-min Rain = 0
KBY1 141613Z 24000KT 13/M03 A3013 RMK A01 T01281031  RH  033%=      5-min Rain = 0
KBY1 141614Z 18001KT 13/M03 A3013 RMK A01 T01301031  RH  033%=      5-min Rain = 0
KBY1 141615Z 18001KT 13/M03 A3013 RMK A01 T01321032  RH  032%=      5-min Rain = 0
KBY1 141616Z 13001KT 13/M03 A3013 RMK A01 T01331034  RH  031%=      5-min Rain = 0
KBY1 141617Z 20001KT 13/M04 A3013 RMK A01 T01341035  RH  031%=      5-min Rain = 0
KBY1 141618Z 22001KT 14/M04 A3013 RMK A01 T01351037  RH  030%=      5-min Rain = 0
KBY1 141619Z 20000KT 14/M04 A3013 RMK A01 T01351038  RH  030%=      5-min Rain = 0
KBY1 141620Z 00000KT 13/M04 A3013 RMK A01 T01341038  RH  030%=      5-min Rain = 0
KBY1 141621Z 00000KT 13/M04 A3013 RMK A01 T01341038  RH  030%=      5-min Rain = 0
KBY1 141622Z 24000KT 14/M04 A3013 RMK A01 T01361039  RH  029%=      5-min Rain = 0
KBY1 141623Z 24001KT 14/M04 A3013 RMK A01 T01381038  RH  029%=      5-min Rain = 0
KBY1 141624Z 24001KT 14/M04 A3013 RMK A01 T01391038  RH  029%=      5-min Rain = 0
KBY1 141625Z 26001KT 14/M04 A3013 RMK A01 T01391040  RH  029%=      5-min Rain = 0
KBY1 141626Z 21001KT 14/M04 A3013 RMK A01 T01391039  RH  029%=      5-min Rain = 0
KBY1 141627Z 17001KT 14/M04 A3013 RMK A01 T01391038  RH  029%=      5-min Rain = 0
KBY1 141628Z 18001KT 14/M04 A3013 RMK A01 T01401039  RH  029%=      5-min Rain = 0
KBY1 141629Z 20002KT 14/M04 A3013 RMK A01 T01411039  RH  029%=      5-min Rain = 0
KBY1 141630Z 20001KT 14/M04 A3013 RMK A01 T01411039  RH  028%=      5-min Rain = 0
KBY1 141631Z 20000KT 14/M04 A3013 RMK A01 T01421039  RH  028%=      5-min Rain = 0
KBY1 141632Z 00000KT 14/M04 A3013 RMK A01 T01431038  RH  028%=      5-min Rain = 0
KBY1 141633Z 21000KT 15/M04 A3013 RMK A01 T01451037  RH  028%=      5-min Rain = 0
KBY1 141634Z 22000KT 15/M04 A3013 RMK A01 T01471037  RH  028%=      5-min Rain = 0
KBY1 141635Z 22001KT 15/M04 A3013 RMK A01 T01491038  RH  027%=      5-min Rain = 0
KBY1 141636Z 21002KT 15/M04 A3013 RMK A01 T01501038  RH  027%=      5-min Rain = 0
KBY1 141637Z 22002KT 15/M04 A3013 RMK A01 T01511037  RH  027%=      5-min Rain = 0
KBY1 141638Z 20002KT 15/M04 A3013 RMK A01 T01521037  RH  027%=      5-min Rain = 0
KBY1 141639Z 21002KT 15/M04 A3013 RMK A01 T01541038  RH  026%=      5-min Rain = 0
KBY1 141640Z 21002KT 16/M04 A3013 RMK A01 T01551037  RH  027%=      5-min Rain = 0
KBY1 141641Z 21002KT 16/M04 A3013 RMK A01 T01561037  RH  026%=      5-min Rain = 0
KBY1 141642Z 21003KT 16/M04 A3013 RMK A01 T01571039  RH  026%=      5-min Rain = 0
KBY1 141643Z 19003KT 16/M04 A3013 RMK A01 T01571039  RH  026%=      5-min Rain = 0
KBY1 141644Z 21004KT 16/M04 A3013 RMK A01 T01581039  RH  026%=      5-min Rain = 0
KBY1 141645Z 20003KT 16/M04 A3013 RMK A01 T01581038  RH  026%=      5-min Rain = 0
KBY1 141646Z 19003KT 16/M04 A3013 RMK A01 T01601035  RH  026%=      5-min Rain = 0
KBY1 141647Z 18004KT 16/M03 A3013 RMK A01 T01621034  RH  026%=      5-min Rain = 0
KBY1 141648Z 18003KT 16/M03 A3013 RMK A01 T01631032  RH  026%=      5-min Rain = 0
KBY1 141649Z 22001KT 16/M04 A3013 RMK A01 T01631035  RH  025%=      5-min Rain = 0
KBY1 141650Z 24002KT 16/M04 A3013 RMK A01 T01641036  RH  025%=      5-min Rain = 0
KBY1 141651Z 24003KT 17/M04 A3013 RMK A01 T01651037  RH  025%=      5-min Rain = 0
KBY1 141652Z 23003KT 17/M04 A3013 RMK A01 T01671038  RH  024%=      5-min Rain = 0
KBY1 141653Z 25003KT 17/M04 A3013 RMK A01 T01681037  RH  024%=      5-min Rain = 0
KBY1 141654Z 25003KT 17/M04 A3013 RMK A01 T01691037  RH  024%=      5-min Rain = 0
KBY1 141655Z 24002KT 17/M04 A3012 RMK A01 T01711039  RH  024%=      5-min Rain = 0
KBY1 141656Z 27003KT 17/M04 A3012 RMK A01 T01731043  RH  023%=      5-min Rain = 0
KBY1 141657Z 28002KT 18/M04 A3012 RMK A01 T01751044  RH  022%=      5-min Rain = 0
KBY1 141658Z 23003KT 18/M04 A3012 RMK A01 T01781044  RH  022%=      5-min Rain = 0
KBY1 141659Z 24002KT 18/M04 A3012 RMK A01 T01821041  RH  022%=      5-min Rain = 0
KBY1 141700Z 25001KT 19/M04 A3012 RMK A01 T01871043  RH  021%=      5-min Rain = 0
KBY1 141701Z 21004KT 19/M05 A3012 RMK A01 T01891045  RH  020%=      5-min Rain = 0
KBY1 141702Z 22006KT 19/M05 A3012 RMK A01 T01901047  RH  020%=      5-min Rain = 0
KBY1 141703Z 23009G14KT 19/M05 A3012 RMK A01 T01921052  RH  019%=      5-min Rain = 0
KBY1 141704Z 23010KT 19/M05 A3012 RMK A01 T01941052  RH  018%=      5-min Rain = 0
KBY1 141705Z 22009KT 20/M05 A3012 RMK A01 T01961053  RH  018%=      5-min Rain = 0
KBY1 141706Z 23008G13KT 20/M05 A3012 RMK A01 T01981052  RH  018%=      5-min Rain = 0
KBY1 141707Z 23011KT 20/M06 A3011 RMK A01 T01991055  RH  018%=      5-min Rain = 0
KBY1 141708Z 23008KT 20/M06 A3011 RMK A01 T01991056  RH  017%=      5-min Rain = 0
KBY1 141709Z 25010KT 20/M05 A3011 RMK A01 T02001054  RH  018%=      5-min Rain = 0
KBY1 141710Z 26009KT 20/M05 A3011 RMK A01 T02011054  RH  017%=      5-min Rain = 0
KBY1 141711Z 24008KT 20/M05 A3011 RMK A01 T02031053  RH  017%=      5-min Rain = 0
KBY1 141712Z 24010KT 21/M05 A3011 RMK A01 T02051054  RH  017%=      5-min Rain = 0
KBY1 141713Z 23011KT 21/M06 A3011 RMK A01 T02051056  RH  017%=      5-min Rain = 0
KBY1 141714Z 24012KT 21/M06 A3011 RMK A01 T02051057  RH  016%=      5-min Rain = 0
KBY1 141715Z 23013KT 21/M06 A3011 RMK A01 T02051058  RH  016%=      5-min Rain = 0
KBY1 141716Z 23011KT 20/M06 A3011 RMK A01 T02041059  RH  016%=      5-min Rain = 0
KBY1 141717Z 24012KT 20/M06 A3011 RMK A01 T02041059  RH  016%=      5-min Rain = 0
KBY1 141718Z 25011KT 21/M06 A3011 RMK A01 T02051060  RH  016%=      5-min Rain = 0
KBY1 141719Z 23012G17KT 21/M06 A3011 RMK A01 T02061059  RH  016%=      5-min Rain = 0
KBY1 141720Z 24014KT 21/M06 A3011 RMK A01 T02071059  RH  016%=      5-min Rain = 0
KBY1 141721Z 24011KT 21/M06 A3011 RMK A01 T02081060  RH  016%=      5-min Rain = 0
KBY1 141722Z 25008KT 21/M06 A3011 RMK A01 T02081060  RH  016%=      5-min Rain = 0
KBY1 141723Z 24012KT 21/M06 A3011 RMK A01 T02101058  RH  016%=      5-min Rain = 0
KBY1 141724Z 25009KT 21/M06 A3011 RMK A01 T02101059  RH  016%=      5-min Rain = 0
KBY1 141725Z 24009KT 21/M06 A3011 RMK A01 T02111060  RH  016%=      5-min Rain = 0
KBY1 141726Z 24010KT 21/M06 A3011 RMK A01 T02111060  RH  016%=      5-min Rain = 0
KBY1 141727Z 25009KT 21/M06 A3011 RMK A01 T02121058  RH  016%=      5-min Rain = 0
KBY1 141728Z 25014G19KT 21/M06 A301 RMK A01 T02141061  RH  015%=      5-min Rain = 0
KBY1 141729Z 25014G20KT 22/M06 A301 RMK A01 T02151064  RH  015%=      5-min Rain = 0
KBY1 141730Z 25015KT 22/M07 A301 RMK A01 T02161066  RH  014%=      5-min Rain = 0
KBY1 141731Z 26015KT 22/M07 A301 RMK A01 T02161069  RH  014%=      5-min Rain = 0
KBY1 141732Z 26014KT 22/M07 A301 RMK A01 T02171068  RH  014%=      5-min Rain = 0
KBY1 141733Z 25013G18KT 22/M07 A301 RMK A01 T02171069  RH  014%=      5-min Rain = 0
KBY1 141734Z 25012KT 22/M07 A301 RMK A01 T02171068  RH  014%=      5-min Rain = 0
KBY1 141735Z 26017G24KT 22/M07 A301 RMK A01 T02181067  RH  014%=      5-min Rain = 0
KBY1 141736Z 25014KT 22/M07 A301 RMK A01 T02191070  RH  014%=      5-min Rain = 0
KBY1 141737Z 26017KT 22/M07 A301 RMK A01 T02191069  RH  014%=      5-min Rain = 0
KBY1 141738Z 26016KT 22/M07 A301 RMK A01 T02181070  RH  014%=      5-min Rain = 0
KBY1 141739Z 25015G20KT 22/M07 A301 RMK A01 T02181069  RH  014%=      5-min Rain = 0
KBY1 141740Z 25016KT 22/M07 A301 RMK A01 T02181069  RH  014%=      5-min Rain = 0
KBY1 141741Z 25016KT 22/M07 A301 RMK A01 T02171069  RH  014%=      5-min Rain = 0
KBY1 141742Z 25011KT 22/M07 A301 RMK A01 T02171068  RH  014%=      5-min Rain = 0
KBY1 141743Z 24012KT 22/M07 A301 RMK A01 T02191065  RH  014%=      5-min Rain = 0
KBY1 141744Z 23012KT 22/M06 A301 RMK A01 T02221063  RH  014%=      5-min Rain = 0
KBY1 141745Z 24014KT 23/M06 A301 RMK A01 T02251064  RH  014%=      5-min Rain = 0
KBY1 141746Z 24018G23KT 23/M07 A301 RMK A01 T02261065  RH  014%=      5-min Rain = 0
KBY1 141747Z 24021KT 22/M07 A301 RMK A01 T02241068  RH  014%=      5-min Rain = 0
KBY1 141748Z 24020KT 22/M07 A301 RMK A01 T02211069  RH  014%=      5-min Rain = 0
KBY1 141749Z 24017KT 22/M07 A301 RMK A01 T02191069  RH  014%=      5-min Rain = 0
KBY1 141750Z 24019G27KT 22/M07 A301 RMK A01 T02191068  RH  014%=      5-min Rain = 0
KBY1 141751Z 25020G26KT 22/M07 A301 RMK A01 T02191069  RH  014%=      5-min Rain = 0
KBY1 141752Z 26016KT 22/M07 A3009 RMK A01 T02191069  RH  014%=      5-min Rain = 0
KBY1 141753Z 24019KT 22/M07 A301 RMK A01 T02201067  RH  014%=      5-min Rain = 0
KBY1 141754Z 23020G25KT 22/M07 A3009 RMK A01 T02201068  RH  014%=      5-min Rain = 0
KBY1 141755Z 24020G26KT 22/M07 A3009 RMK A01 T02201068  RH  014%=      5-min Rain = 0
KBY1 141756Z 25020KT 22/M07 A3009 RMK A01 T02191070  RH  014%=      5-min Rain = 0
KBY1 141757Z 24016G21KT 22/M07 A3009 RMK A01 T02191069  RH  014%=      5-min Rain = 0
KBY1 141758Z 24021KT 22/M07 A3009 RMK A01 T02201068  RH  014%=      5-min Rain = 0
KBY1 141759Z 24017G22KT 22/M07 A3009 RMK A01 T02201068  RH  014%=      5-min Rain = 0
KBY1 141800Z 25017KT 22/M07 A3009 RMK A01 T02201069  RH  014%=      5-min Rain = 0
KBY1 141801Z 25015KT 22/M07 A3009 RMK A01 T02201068  RH  014%=      5-min Rain = 0
KBY1 141802Z 25019KT 22/M07 A3009 RMK A01 T02201068  RH  014%=      5-min Rain = 0
KBY1 141803Z 25018KT 22/M07 A3009 RMK A01 T02201068  RH  014%=      5-min Rain = 0
KBY1 141804Z 25021G26KT 22/M07 A3009 RMK A01 T02211068  RH  014%=      5-min Rain = 0
KBY1 141805Z 24019KT 22/M07 A3009 RMK A01 T02201069  RH  014%=      5-min Rain = 0
KBY1 141806Z 25018KT 22/M07 A3009 RMK A01 T02201069  RH  014%=      5-min Rain = 0
KBY1 141807Z 25016KT 22/M07 A3009 RMK A01 T02201068  RH  014%=      5-min Rain = 0
KBY1 141808Z 25016G22KT 22/M07 A3009 RMK A01 T02221068  RH  014%=      5-min Rain = 0
KBY1 141809Z 25017G22KT 22/M07 A3009 RMK A01 T02231068  RH  014%=      5-min Rain = 0
KBY1 141810Z 25018G23KT 23/M07 A3009 RMK A01 T02251068  RH  014%=      5-min Rain = 0
KBY1 141811Z 24017G24KT 22/M07 A3009 RMK A01 T02241070  RH  013%=      5-min Rain = 0
KBY1 141812Z 25014KT 22/M07 A3008 RMK A01 T02221069  RH  014%=      5-min Rain = 0
KBY1 141813Z 26019KT 22/M07 A3008 RMK A01 T02231068  RH  014%=      5-min Rain = 0
KBY1 141814Z 25015KT 22/M07 A3008 RMK A01 T02241069  RH  013%=      5-min Rain = 0
KBY1 141815Z 26014G21KT 22/M07 A3008 RMK A01 T02241068  RH  014%=      5-min Rain = 0
KBY1 141816Z 26018KT 23/M07 A3008 RMK A01 T02261069  RH  013%=      5-min Rain = 0
KBY1 141817Z 25015KT 23/M07 A3008 RMK A01 T02261069  RH  013%=      5-min Rain = 0
KBY1 141818Z 25016KT 23/M07 A3008 RMK A01 T02261070  RH  013%=      5-min Rain = 0
KBY1 141819Z 25014KT 23/M07 A3008 RMK A01 T02281069  RH  013%=      5-min Rain = 0
KBY1 141820Z 24013KT 23/M07 A3008 RMK A01 T02291069  RH  013%=      5-min Rain = 0
KBY1 141821Z 24010KT 23/M07 A3008 RMK A01 T02301068  RH  013%=      5-min Rain = 0
KBY1 141822Z 24013KT 23/M07 A3008 RMK A01 T02331068  RH  013%=      5-min Rain = 0
KBY1 141823Z 25015G21KT 23/M07 A3008 RMK A01 T02341069  RH  013%=      5-min Rain = 0
KBY1 141824Z 24016KT 23/M07 A3008 RMK A01 T02321071  RH  013%=      5-min Rain = 0
KBY1 141825Z 23012KT 23/M07 A3008 RMK A01 T02311070  RH  013%=      5-min Rain = 0
KBY1 141826Z 23012KT 23/M07 A3008 RMK A01 T02311068  RH  013%=      5-min Rain = 0
KBY1 141827Z 25012KT 23/M07 A3007 RMK A01 T02331068  RH  013%=      5-min Rain = 0
KBY1 141828Z 23013KT 24/M07 A3007 RMK A01 T02351071  RH  012%=      5-min Rain = 0
KBY1 141829Z 23011KT 24/M07 A3007 RMK A01 T02351070  RH  013%=      5-min Rain = 0
KBY1 141830Z 23013KT 24/M07 A3007 RMK A01 T02381069  RH  012%=      5-min Rain = 0
KBY1 141831Z 24016G21KT 24/M07 A3007 RMK A01 T02391070  RH  012%=      5-min Rain = 0
KBY1 141832Z 24018KT 24/M07 A3007 RMK A01 T02381074  RH  012%=      5-min Rain = 0
KBY1 141833Z 24019G24KT 24/M08 A3007 RMK A01 T02361075  RH  012%=      5-min Rain = 0
KBY1 141834Z 24020G25KT 23/M08 A3007 RMK A01 T02341077  RH  012%=      5-min Rain = 0
KBY1 141835Z 23019G24KT 23/M08 A3007 RMK A01 T02341076  RH  012%=      5-min Rain = 0
KBY1 141836Z 24017KT 24/M08 A3007 RMK A01 T02361078  RH  012%=      5-min Rain = 0
KBY1 141837Z 23019G24KT 24/M08 A3006 RMK A01 T02371078  RH  012%=      5-min Rain = 0
KBY1 141838Z 23019KT 24/M08 A3006 RMK A01 T02371078  RH  012%=      5-min Rain = 0
KBY1 141839Z 23019KT 24/M08 A3006 RMK A01 T02361079  RH  012%=      5-min Rain = 0
KBY1 141840Z 23014KT 24/M08 A3006 RMK A01 T02361076  RH  012%=      5-min Rain = 0
KBY1 141841Z 23016KT 24/M08 A3006 RMK A01 T02391076  RH  012%=      5-min Rain = 0
KBY1 141842Z 24020KT 24/M08 A3006 RMK A01 T02401080  RH  011%=      5-min Rain = 0
KBY1 141843Z 25021KT 24/M08 A3006 RMK A01 T02381083  RH  011%=      5-min Rain = 0
KBY1 141844Z 24019KT 24/M09 A3006 RMK A01 T02361087  RH  011%=      5-min Rain = 0
KBY1 141845Z 25020G25KT 24/M09 A3006 RMK A01 T02351086  RH  011%=      5-min Rain = 0
KBY1 141846Z 25018G23KT 24/M09 A3006 RMK A01 T02351087  RH  011%=      5-min Rain = 0
KBY1 141847Z 25017KT 24/M08 A3006 RMK A01 T02351084  RH  011%=      5-min Rain = 0
KBY1 141848Z 26016KT 24/M08 A3006 RMK A01 T02361083  RH  011%=      5-min Rain = 0
KBY1 141849Z 25014G19KT 24/M08 A3006 RMK A01 T02371081  RH  011%=      5-min Rain = 0
KBY1 141850Z 24016G22KT 24/M08 A3005 RMK A01 T02391081  RH  011%=      5-min Rain = 0
KBY1 141851Z 23022G29KT 24/M08 A3005 RMK A01 T02421081  RH  011%=      5-min Rain = 0
KBY1 141852Z 23022G28KT 24/M09 A3005 RMK A01 T02411086  RH  011%=      5-min Rain = 0
KBY1 141853Z 23019G24KT 24/M09 A3005 RMK A01 T02401086  RH  011%=      5-min Rain = 0
KBY1 141854Z 24022KT 24/M09 A3005 RMK A01 T02391087  RH  011%=      5-min Rain = 0
KBY1 141855Z 23021KT 24/M09 A3005 RMK A01 T02391085  RH  011%=      5-min Rain = 0
KBY1 141856Z 23020G27KT 24/M09 A3005 RMK A01 T02391086  RH  011%=      5-min Rain = 0
KBY1 141857Z 23020KT 24/M09 A3005 RMK A01 T02391085  RH  011%=      5-min Rain = 0
KBY1 141858Z 24014KT 24/M09 A3005 RMK A01 T02391085  RH  011%=      5-min Rain = 0
KBY1 141859Z 23018G24KT 24/M09 A3005 RMK A01 T02411085  RH  011%=      5-min Rain = 0
KBY1 141900Z 24016G23KT 24/M09 A3005 RMK A01 T02421086  RH  011%=      5-min Rain = 0
KBY1 141901Z 25018G26KT 24/M09 A3005 RMK A01 T02441085  RH  011%=      5-min Rain = 0
KBY1 141902Z 25018G25KT 24/M09 A3005 RMK A01 T02441087  RH  010%=      5-min Rain = 0
KBY1 141903Z 26020G26KT 24/M09 A3005 RMK A01 T02441087  RH  010%=      5-min Rain = 0
KBY1 141904Z 25018G24KT 24/M09 A3005 RMK A01 T02421087  RH  011%=      5-min Rain = 0
KBY1 141905Z 24018G24KT 24/M09 A3005 RMK A01 T02421086  RH  011%=      5-min Rain = 0
KBY1 141906Z 24020KT 24/M09 A3005 RMK A01 T02431087  RH  010%=      5-min Rain = 0
KBY1 141907Z 24022KT 24/M09 A3004 RMK A01 T02431088  RH  010%=      5-min Rain = 0
KBY1 141908Z 24016G21KT 24/M09 A3004 RMK A01 T02411085  RH  011%=      5-min Rain = 0
KBY1 141909Z 24019G26KT 24/M08 A3004 RMK A01 T02431083  RH  011%=      5-min Rain = 0
KBY1 141910Z 24018G27KT 24/M08 A3004 RMK A01 T02431082  RH  011%=      5-min Rain = 0
KBY1 141911Z 24022G29KT 24/M08 A3004 RMK A01 T02441082  RH  011%=      5-min Rain = 0
KBY1 141912Z 23022G27KT 24/M08 A3004 RMK A01 T02431084  RH  011%=      5-min Rain = 0
KBY1 141913Z 23022G29KT 24/M09 A3004 RMK A01 T02411085  RH  011%=      5-min Rain = 0
KBY1 141914Z 22021G26KT 24/M08 A3004 RMK A01 T02401084  RH  011%=      5-min Rain = 0
KBY1 141915Z 23022KT 24/M08 A3004 RMK A01 T02421084  RH  011%=      5-min Rain = 0
KBY1 141916Z 23023G28KT 24/M08 A3004 RMK A01 T02431084  RH  011%=      5-min Rain = 0
KBY1 141917Z 23025KT 24/M08 A3004 RMK A01 T02431084  RH  011%=      5-min Rain = 0
KBY1 141918Z 24017KT 24/M09 A3004 RMK A01 T02431086  RH  011%=      5-min Rain = 0
KBY1 141919Z 24022G28KT 24/M08 A3003 RMK A01 T02441084  RH  011%=      5-min Rain = 0
KBY1 141920Z 24021G27KT 24/M09 A3003 RMK A01 T02441085  RH  011%=      5-min Rain = 0
KBY1 141921Z 25019G24KT 24/M09 A3003 RMK A01 T02421085  RH  011%=      5-min Rain = 0
KBY1 141922Z 24019G27KT 24/M09 A3003 RMK A01 T02421086  RH  011%=      5-min Rain = 0
KBY1 141923Z 24021G29KT 24/M09 A3003 RMK A01 T02441090  RH  010%=      5-min Rain = 0
KBY1 141924Z 24019KT 25/M09 A3003 RMK A01 T02451091  RH  010%=      5-min Rain = 0
KBY1 141925Z 23022G27KT 25/M09 A3003 RMK A01 T02451091  RH  010%=      5-min Rain = 0
KBY1 141926Z 23020KT 24/M09 A3003 RMK A01 T02431091  RH  010%=      5-min Rain = 0
KBY1 141927Z 23020KT 24/M09 A3003 RMK A01 T02441089  RH  010%=      5-min Rain = 0
KBY1 141928Z 22020G25KT 24/M09 A3003 RMK A01 T02441088  RH  010%=      5-min Rain = 0
KBY1 141929Z 23018KT 24/M09 A3003 RMK A01 T02431088  RH  010%=      5-min Rain = 0
KBY1 141930Z 25016G21KT 24/M09 A3003 RMK A01 T02431085  RH  011%=      5-min Rain = 0
KBY1 141931Z 24017KT 24/M09 A3003 RMK A01 T02441086  RH  010%=      5-min Rain = 0
KBY1 141932Z 24018KT 24/M09 A3002 RMK A01 T02431087  RH  010%=      5-min Rain = 0
KBY1 141933Z 23021G26KT 24/M09 A3002 RMK A01 T02441089  RH  010%=      5-min Rain = 0
KBY1 141934Z 23020G26KT 25/M09 A3002 RMK A01 T02451091  RH  010%=      5-min Rain = 0
KBY1 141935Z 23020G26KT 25/M09 A3002 RMK A01 T02461093  RH  010%=      5-min Rain = 0
KBY1 141936Z 23019KT 25/M09 A3003 RMK A01 T02481094  RH  010%=      5-min Rain = 0
KBY1 141937Z 23017KT 25/M09 A3002 RMK A01 T02491094  RH  010%=      5-min Rain = 0
KBY1 141938Z 23018G23KT 25/M09 A3002 RMK A01 T02491093  RH  010%=      5-min Rain = 0
KBY1 141939Z 22020G26KT 25/M10 A3002 RMK A01 T02501096  RH  009%=      5-min Rain = 0
KBY1 141940Z 24020G28KT 25/M10 A3002 RMK A01 T02491097  RH  009%=      5-min Rain = 0
KBY1 141941Z 24020G25KT 25/M10 A3002 RMK A01 T02491098  RH  009%=      5-min Rain = 0
KBY1 141942Z 24023G29KT 25/M10 A3002 RMK A01 T02491095  RH  009%=      5-min Rain = 0
KBY1 141943Z 24018KT 25/M10 A3002 RMK A01 T02471095  RH  010%=      5-min Rain = 0
KBY1 141944Z 23021G26KT 25/M09 A3002 RMK A01 T02471093  RH  010%=      5-min Rain = 0
KBY1 141945Z 23020KT 25/M09 A3002 RMK A01 T02461091  RH  010%=      5-min Rain = 0
KBY1 141946Z 24021G27KT 25/M09 A3002 RMK A01 T02461091  RH  010%=      5-min Rain = 0
KBY1 141947Z 23018G24KT 25/M09 A3002 RMK A01 T02471090  RH  010%=      5-min Rain = 0
KBY1 141948Z 23023G28KT 25/M09 A3002 RMK A01 T02481092  RH  010%=      5-min Rain = 0
KBY1 141949Z 23024KT 25/M10 A3002 RMK A01 T02481095  RH  010%=      5-min Rain = 0
KBY1 141950Z 24020KT 25/M10 A3002 RMK A01 T02461095  RH  010%=      5-min Rain = 0
KBY1 141951Z 25019G24KT 25/M09 A3002 RMK A01 T02451094  RH  010%=      5-min Rain = 0
KBY1 141952Z 24026G31KT 25/M09 A3001 RMK A01 T02451094  RH  010%=      5-min Rain = 0
KBY1 141953Z 24021G29KT 25/M10 A3001 RMK A01 T02451096  RH  010%=      5-min Rain = 0
KBY1 141954Z 24025KT 25/M10 A3001 RMK A01 T02451095  RH  010%=      5-min Rain = 0
KBY1 141955Z 25021KT 25/M10 A3001 RMK A01 T02451096  RH  010%=      5-min Rain = 0
KBY1 141956Z 25018G24KT 25/M10 A3001 RMK A01 T02451095  RH  010%=      5-min Rain = 0
KBY1 141957Z 24018G24KT 25/M09 A3001 RMK A01 T02451094  RH  010%=      5-min Rain = 0
KBY1 141958Z 25023G31KT 25/M10 A3001 RMK A01 T02461095  RH  010%=      5-min Rain = 0
KBY1 141959Z 25022G28KT 25/M10 A3001 RMK A01 T02461099  RH  009%=      5-min Rain = 0
KBY1 142000Z 24026G32KT 24/M10 A3001 RMK A01 T02441103  RH  009%=      5-min Rain = 0
KBY1 142001Z 23021G32KT 24/M10 A3001 RMK A01 T02441102  RH  009%=      5-min Rain = 0
KBY1 142002Z 23024G31KT 25/M10 A3001 RMK A01 T02451103  RH  009%=      5-min Rain = 0
KBY1 142003Z 23018G24KT 24/M10 A3001 RMK A01 T02441103  RH  009%=      5-min Rain = 0
KBY1 142004Z 23022G27KT 25/M10 A30 RMK A01 T02461102  RH  009%=      5-min Rain = 0
KBY1 142005Z 23023G29KT 25/M10 A30 RMK A01 T02461103  RH  009%=      5-min Rain = 0
KBY1 142006Z 24023G28KT 25/M10 A30 RMK A01 T02481101  RH  009%=      5-min Rain = 0
KBY1 142007Z 24024G29KT 25/M11 A30 RMK A01 T02481106  RH  009%=      5-min Rain = 0
KBY1 142008Z 25023G28KT 25/M11 A3001 RMK A01 T02481108  RH  009%=      5-min Rain = 0
KBY1 142009Z 25020G30KT 25/M11 A3001 RMK A01 T02461109  RH  009%=      5-min Rain = 0
KBY1 142010Z 25024KT 25/M11 A3001 RMK A01 T02461108  RH  009%=      5-min Rain = 0
KBY1 142011Z 25024G30KT 25/M11 A30 RMK A01 T02451107  RH  009%=      5-min Rain = 0
KBY1 142012Z 25017G23KT 24/M11 A3001 RMK A01 T02441105  RH  009%=      5-min Rain = 0
KBY1 142013Z 25021G26KT 25/M10 A3001 RMK A01 T02451104  RH  009%=      5-min Rain = 0
KBY1 142014Z 25021KT 25/M10 A3001 RMK A01 T02461103  RH  009%=      5-min Rain = 0
KBY1 142015Z 24022G27KT 25/M10 A3001 RMK A01 T02461103  RH  009%=      5-min Rain = 0
KBY1 142016Z 25021G28KT 25/M10 A3001 RMK A01 T02471102  RH  009%=      5-min Rain = 0
KBY1 142017Z 25018G23KT 25/M10 A3001 RMK A01 T02471101  RH  009%=      5-min Rain = 0
KBY1 142018Z 26016KT 25/M10 A30 RMK A01 T02481102  RH  009%=      5-min Rain = 0
KBY1 142019Z 24018G26KT 25/M10 A30 RMK A01 T02501100  RH  009%=      5-min Rain = 0
KBY1 142020Z 24020G25KT 25/M10 A30 RMK A01 T02511100  RH  009%=      5-min Rain = 0
KBY1 142021Z 25022G28KT 25/M10 A30 RMK A01 T02511099  RH  009%=      5-min Rain = 0
KBY1 142022Z 25020G26KT 25/M10 A30 RMK A01 T02511100  RH  009%=      5-min Rain = 0
KBY1 142023Z 24020KT 25/M10 A30 RMK A01 T02511102  RH  009%=      5-min Rain = 0
KBY1 142024Z 24023G29KT 25/M10 A30 RMK A01 T02511102  RH  009%=      5-min Rain = 0
KBY1 142025Z 24016G25KT 25/M10 A30 RMK A01 T02511102  RH  009%=      5-min Rain = 0
KBY1 142026Z 23017G24KT 26/M10 A30 RMK A01 T02551099  RH  009%=      5-min Rain = 0
KBY1 142027Z 23022KT 26/M10 A30 RMK A01 T02561101  RH  009%=      5-min Rain = 0
KBY1 142028Z 23016KT 25/M10 A30 RMK A01 T02541102  RH  009%=      5-min Rain = 0
KBY1 142029Z 24016G27KT 26/M10 A30 RMK A01 T02551099  RH  009%=      5-min Rain = 0
KBY1 142030Z 24018G26KT 26/M10 A30 RMK A01 T02571101  RH  009%=      5-min Rain = 0
KBY1 142031Z 24016G23KT 26/M10 A2999 RMK A01 T02561103  RH  009%=      5-min Rain = 0
KBY1 142032Z 24019KT 25/M10 A2999 RMK A01 T02541103  RH  009%=      5-min Rain = 0
KBY1 142033Z 24019G26KT 25/M10 A30 RMK A01 T02541104  RH  009%=      5-min Rain = 0
KBY1 142034Z 23024KT 25/M11 A2999 RMK A01 T02541105  RH  009%=      5-min Rain = 0
KBY1 142035Z 24022G27KT 25/M11 A2999 RMK A01 T02521107  RH  008%=      5-min Rain = 0
KBY1 142036Z 24017KT 25/M11 A2999 RMK A01 T02511106  RH  009%=      5-min Rain = 0
KBY1 142037Z 23017KT 25/M11 A2999 RMK A01 T02511105  RH  009%=      5-min Rain = 0
KBY1 142038Z 24016KT 25/M11 A2999 RMK A01 T02521105  RH  009%=      5-min Rain = 0
KBY1 142039Z 24014G19KT 25/M10 A2999 RMK A01 T02541103  RH  009%=      5-min Rain = 0
KBY1 142040Z 23016G21KT 26/M10 A2999 RMK A01 T02581100  RH  009%=      5-min Rain = 0
KBY1 142041Z 23019G24KT 26/M10 A2999 RMK A01 T02591101  RH  009%=      5-min Rain = 0
KBY1 142042Z 23019G24KT 26/M10 A2999 RMK A01 T02571101  RH  009%=      5-min Rain = 0
KBY1 142043Z 23020KT 26/M10 A2999 RMK A01 T02571099  RH  009%=      5-min Rain = 0
KBY1 142044Z 24017G23KT 26/M10 A2999 RMK A01 T02581098  RH  009%=      5-min Rain = 0
KBY1 142045Z 22020G25KT 26/M10 A2999 RMK A01 T02581098  RH  009%=      5-min Rain = 0
KBY1 142046Z 22020G27KT 26/M10 A2999 RMK A01 T02591097  RH  009%=      5-min Rain = 0
KBY1 142047Z 22020G26KT 26/M10 A2999 RMK A01 T02571098  RH  009%=      5-min Rain = 0
KBY1 142048Z 22017KT 26/M10 A2999 RMK A01 T02551098  RH  009%=      5-min Rain = 0
KBY1 142049Z 24014KT 26/M10 A2999 RMK A01 T02551096  RH  009%=      5-min Rain = 0
KBY1 142050Z 25017G23KT 26/M10 A2998 RMK A01 T02571096  RH  009%=      5-min Rain = 0
KBY1 142051Z 23016G21KT 26/M10 A2998 RMK A01 T02571099  RH  009%=      5-min Rain = 0
KBY1 142052Z 23016G22KT 26/M10 A2998 RMK A01 T02561098  RH  009%=      5-min Rain = 0
KBY1 142053Z 22019G24KT 26/M10 A2998 RMK A01 T02561098  RH  009%=      5-min Rain = 0
KBY1 142054Z 23019G24KT 26/M10 A2998 RMK A01 T02561098  RH  009%=      5-min Rain = 0
KBY1 142055Z 22017KT 25/M10 A2998 RMK A01 T02541099  RH  009%=      5-min Rain = 0
KBY1 142056Z 21017G25KT 26/M10 A2998 RMK A01 T02551097  RH  009%=      5-min Rain = 0
KBY1 142057Z 22018G26KT 26/M10 A2998 RMK A01 T02581096  RH  009%=      5-min Rain = 0
KBY1 142058Z 23021G27KT 26/M10 A2998 RMK A01 T02581097  RH  009%=      5-min Rain = 0
KBY1 142059Z 23020KT 26/M10 A2998 RMK A01 T02571098  RH  009%=      5-min Rain = 0
KBY1 142100Z 24023KT 26/M10 A2998 RMK A01 T02561099  RH  009%=      5-min Rain = 0
KBY1 142101Z 23024KT 25/M10 A2998 RMK A01 T02541100  RH  009%=      5-min Rain = 0
KBY1 142102Z 23020G25KT 25/M10 A2998 RMK A01 T02541100  RH  009%=      5-min Rain = 0
KBY1 142103Z 23017KT 25/M10 A2998 RMK A01 T02541099  RH  009%=      5-min Rain = 0
KBY1 142104Z 23016KT 26/M10 A2998 RMK A01 T02551098  RH  009%=      5-min Rain = 0
KBY1 142105Z 24016G22KT 26/M10 A2998 RMK A01 T02571097  RH  009%=      5-min Rain = 0
KBY1 142106Z 23021KT 26/M10 A2998 RMK A01 T02581097  RH  009%=      5-min Rain = 0
KBY1 142107Z 22020G25KT 26/M10 A2998 RMK A01 T02561099  RH  009%=      5-min Rain = 0
KBY1 142108Z 23018G24KT 26/M10 A2998 RMK A01 T02551098  RH  009%=      5-min Rain = 0
KBY1 142109Z 24018G25KT 26/M10 A2998 RMK A01 T02561101  RH  009%=      5-min Rain = 0
KBY1 142110Z 23027G33KT 26/M10 A2998 RMK A01 T02551103  RH  009%=      5-min Rain = 0
KBY1 142111Z 24025KT 25/M11 A2998 RMK A01 T02531105  RH  008%=      5-min Rain = 0
KBY1 142112Z 24023G28KT 25/M11 A2998 RMK A01 T02521106  RH  009%=      5-min Rain = 0
KBY1 142113Z 25020G25KT 25/M11 A2998 RMK A01 T02521106  RH  009%=      5-min Rain = 0
KBY1 142114Z 24022KT 25/M11 A2998 RMK A01 T02521108  RH  008%=      5-min Rain = 0
KBY1 142115Z 25021G28KT 25/M11 A2998 RMK A01 T02531110  RH  008%=      5-min Rain = 0
KBY1 142116Z 23020G29KT 25/M11 A2998 RMK A01 T02531110  RH  008%=      5-min Rain = 0
KBY1 142117Z 23020G27KT 25/M11 A2998 RMK A01 T02531110  RH  008%=      5-min Rain = 0
KBY1 142118Z 24021G28KT 25/M11 A2998 RMK A01 T02541109  RH  008%=      5-min Rain = 0
KBY1 142119Z 23021KT 25/M11 A2998 RMK A01 T02541109  RH  008%=      5-min Rain = 0
KBY1 142120Z 23021G27KT 25/M11 A2998 RMK A01 T02541110  RH  008%=      5-min Rain = 0
KBY1 142121Z 23021KT 25/M11 A2998 RMK A01 T02531109  RH  008%=      5-min Rain = 0
KBY1 142122Z 26018G24KT 25/M11 A2998 RMK A01 T02541108  RH  008%=      5-min Rain = 0
KBY1 142123Z 25014KT 26/M11 A2998 RMK A01 T02561106  RH  008%=      5-min Rain = 0
KBY1 142124Z 25014G19KT 26/M10 A2998 RMK A01 T02601104  RH  008%=      5-min Rain = 0
KBY1 142125Z 25019KT 26/M11 A2997 RMK A01 T02601105  RH  008%=      5-min Rain = 0
KBY1 142126Z 26020KT 26/M11 A2997 RMK A01 T02581106  RH  008%=      5-min Rain = 0
KBY1 142127Z 26017G26KT 26/M11 A2997 RMK A01 T02561105  RH  008%=      5-min Rain = 0
KBY1 142128Z 26020KT 26/M10 A2997 RMK A01 T02551103  RH  009%=      5-min Rain = 0
KBY1 142129Z 25018G23KT 25/M10 A2997 RMK A01 T02541102  RH  009%=      5-min Rain = 0
KBY1 142130Z 23017G25KT 26/M10 A2997 RMK A01 T02551100  RH  009%=      5-min Rain = 0
KBY1 142131Z 24020G26KT 26/M10 A2997 RMK A01 T02571099  RH  009%=      5-min Rain = 0
KBY1 142132Z 23016G21KT 26/M10 A2997 RMK A01 T02551099  RH  009%=      5-min Rain = 0
KBY1 142133Z 23018G24KT 26/M10 A2997 RMK A01 T02551096  RH  009%=      5-min Rain = 0
KBY1 142134Z 23021KT 26/M10 A2997 RMK A01 T02561095  RH  009%=      5-min Rain = 0
KBY1 142135Z 23018G23KT 26/M10 A2997 RMK A01 T02551097  RH  009%=      5-min Rain = 0
KBY1 142136Z 23016G22KT 26/M10 A2997 RMK A01 T02551096  RH  009%=      5-min Rain = 0
KBY1 142137Z 23017KT 26/M10 A2997 RMK A01 T02561098  RH  009%=      5-min Rain = 0
KBY1 142138Z 24012KT 26/M10 A2997 RMK A01 T02551098  RH  009%=      5-min Rain = 0
KBY1 142139Z 22015KT 26/M10 A2997 RMK A01 T02561097  RH  009%=      5-min Rain = 0
KBY1 142140Z 22013KT 26/M10 A2997 RMK A01 T02571096  RH  009%=      5-min Rain = 0
KBY1 142141Z 23015KT 26/M09 A2997 RMK A01 T02571092  RH  009%=      5-min Rain = 0
KBY1 142142Z 24020G25KT 26/M09 A2997 RMK A01 T02591092  RH  009%=      5-min Rain = 0
KBY1 142143Z 25018KT 26/M09 A2997 RMK A01 T02571093  RH  009%=      5-min Rain = 0
KBY1 142144Z 25017G23KT 26/M09 A2997 RMK A01 T02551093  RH  009%=      5-min Rain = 0
KBY1 142145Z 25018G24KT 25/M09 A2997 RMK A01 T02541093  RH  009%=      5-min Rain = 0
KBY1 142146Z 25019G25KT 25/M09 A2997 RMK A01 T02541093  RH  009%=      5-min Rain = 0
KBY1 142147Z 25016KT 25/M09 A2997 RMK A01 T02541093  RH  009%=      5-min Rain = 0
KBY1 142148Z 24018G25KT 25/M09 A2997 RMK A01 T02531092  RH  009%=      5-min Rain = 0
KBY1 142149Z 24023G28KT 25/M09 A2997 RMK A01 T02541092  RH  009%=      5-min Rain = 0
KBY1 142150Z 24020KT 25/M09 A2997 RMK A01 T02521093  RH  009%=      5-min Rain = 0
KBY1 142151Z 25017G22KT 25/M09 A2997 RMK A01 T02511092  RH  010%=      5-min Rain = 0
KBY1 142152Z 25018KT 25/M09 A2997 RMK A01 T02511092  RH  010%=      5-min Rain = 0
KBY1 142153Z 25014KT 25/M09 A2997 RMK A01 T02511092  RH  010%=      5-min Rain = 0
KBY1 142154Z 26018G26KT 25/M09 A2997 RMK A01 T02521090  RH  010%=      5-min Rain = 0
KBY1 142155Z 25017G22KT 25/M09 A2997 RMK A01 T02521091  RH  010%=      5-min Rain = 0
KBY1 142156Z 25017G23KT 25/M09 A2997 RMK A01 T02521091  RH  010%=      5-min Rain = 0
KBY1 142157Z 25024G31KT 25/M09 A2996 RMK A01 T02531092  RH  010%=      5-min Rain = 0
KBY1 142158Z 24018KT 25/M10 A2997 RMK A01 T02511095  RH  009%=      5-min Rain = 0
KBY1 142159Z 24018KT 25/M09 A2996 RMK A01 T02491094  RH  010%=      5-min Rain = 0
KBY1 142200Z 25014G19KT 25/M09 A2996 RMK A01 T02501094  RH  010%=      5-min Rain = 0
KBY1 142201Z 25016G21KT 25/M09 A2996 RMK A01 T02521092  RH  010%=      5-min Rain = 0
KBY1 142202Z 24018KT 25/M09 A2996 RMK A01 T02531092  RH  010%=      5-min Rain = 0
KBY1 142203Z 24016G22KT 25/M09 A2996 RMK A01 T02531092  RH  009%=      5-min Rain = 0
KBY1 142204Z 23020KT 25/M09 A2996 RMK A01 T02531091  RH  010%=      5-min Rain = 0
KBY1 142205Z 23018KT 25/M09 A2996 RMK A01 T02531090  RH  010%=      5-min Rain = 0
KBY1 142206Z 24019G29KT 25/M09 A2996 RMK A01 T02541091  RH  010%=      5-min Rain = 0
KBY1 142207Z 24020G27KT 25/M09 A2996 RMK A01 T02541091  RH  009%=      5-min Rain = 0
KBY1 142208Z 25025KT 25/M09 A2996 RMK A01 T02541092  RH  009%=      5-min Rain = 0
KBY1 142209Z 25020G26KT 25/M09 A2996 RMK A01 T02521093  RH  009%=      5-min Rain = 0
KBY1 142210Z 24023G28KT 25/M09 A2996 RMK A01 T02511094  RH  009%=      5-min Rain = 0
KBY1 142211Z 24022KT 25/M09 A2996 RMK A01 T02511094  RH  009%=      5-min Rain = 0
KBY1 142212Z 24019G26KT 25/M09 A2996 RMK A01 T02501094  RH  009%=      5-min Rain = 0
KBY1 142213Z 24019G26KT 25/M09 A2996 RMK A01 T02511092  RH  010%=      5-min Rain = 0
KBY1 142214Z 24018G24KT 25/M09 A2996 RMK A01 T02501093  RH  010%=      5-min Rain = 0
KBY1 142215Z 23017G24KT 25/M09 A2996 RMK A01 T02521094  RH  009%=      5-min Rain = 0
KBY1 142216Z 23022G27KT 25/M09 A2995 RMK A01 T02521094  RH  009%=      5-min Rain = 0
KBY1 142217Z 23021G27KT 25/M09 A2995 RMK A01 T02521094  RH  009%=      5-min Rain = 0
KBY1 142218Z 23021G29KT 25/M09 A2995 RMK A01 T02521092  RH  010%=      5-min Rain = 0
KBY1 142219Z 23023KT 25/M09 A2995 RMK A01 T02531091  RH  010%=      5-min Rain = 0
KBY1 142220Z 24021KT 25/M09 A2995 RMK A01 T02531092  RH  009%=      5-min Rain = 0
KBY1 142221Z 24017G22KT 25/M09 A2996 RMK A01 T02541091  RH  010%=      5-min Rain = 0
KBY1 142222Z 24021G30KT 26/M09 A2996 RMK A01 T02551090  RH  010%=      5-min Rain = 0
KBY1 142223Z 24020KT 26/M09 A2995 RMK A01 T02551090  RH  010%=      5-min Rain = 0
KBY1 142224Z 24021G27KT 25/M09 A2995 RMK A01 T02541091  RH  010%=      5-min Rain = 0
KBY1 142225Z 24021KT 25/M09 A2995 RMK A01 T02531091  RH  010%=      5-min Rain = 0
KBY1 142226Z 22022G29KT 25/M09 A2995 RMK A01 T02531092  RH  010%=      5-min Rain = 0
KBY1 142227Z 23022G28KT 25/M09 A2995 RMK A01 T02521092  RH  010%=      5-min Rain = 0
KBY1 142228Z 24020G27KT 25/M09 A2995 RMK A01 T02521092  RH  010%=      5-min Rain = 0
KBY1 142229Z 25016KT 25/M09 A2995 RMK A01 T02521091  RH  010%=      5-min Rain = 0
KBY1 142230Z 24015G21KT 25/M09 A2995 RMK A01 T02531091  RH  010%=      5-min Rain = 0
KBY1 142231Z 25016KT 25/M09 A2995 RMK A01 T02531091  RH  010%=      5-min Rain = 0
KBY1 142232Z 25015G22KT 25/M09 A2995 RMK A01 T02531092  RH  009%=      5-min Rain = 0
KBY1 142233Z 25014G20KT 25/M09 A2995 RMK A01 T02541092  RH  009%=      5-min Rain = 0
KBY1 142234Z 25020G29KT 25/M09 A2995 RMK A01 T02531093  RH  009%=      5-min Rain = 0
KBY1 142235Z 25024KT 25/M09 A2994 RMK A01 T02541092  RH  009%=      5-min Rain = 0
KBY1 142236Z 22022G27KT 25/M09 A2994 RMK A01 T02531092  RH  009%=      5-min Rain = 0
KBY1 142237Z 24018G24KT 25/M09 A2995 RMK A01 T02531093  RH  009%=      5-min Rain = 0
KBY1 142238Z 25020KT 25/M09 A2995 RMK A01 T02541092  RH  009%=      5-min Rain = 0
KBY1 142239Z 24022KT 25/M09 A2994 RMK A01 T02541091  RH  010%=      5-min Rain = 0
KBY1 142240Z 25019G25KT 25/M09 A2995 RMK A01 T02521091  RH  010%=      5-min Rain = 0
KBY1 142241Z 25022G28KT 25/M09 A2994 RMK A01 T02521092  RH  010%=      5-min Rain = 0
KBY1 142242Z 24020G26KT 25/M09 A2994 RMK A01 T02521091  RH  010%=      5-min Rain = 0
KBY1 142243Z 25019G24KT 25/M09 A2994 RMK A01 T02521091  RH  010%=      5-min Rain = 0
KBY1 142244Z 25016KT 25/M09 A2995 RMK A01 T02521092  RH  010%=      5-min Rain = 0
KBY1 142245Z 24017G22KT 25/M09 A2995 RMK A01 T02521092  RH  010%=      5-min Rain = 0
KBY1 142246Z 25016KT 25/M09 A2995 RMK A01 T02531092  RH  010%=      5-min Rain = 0
KBY1 142247Z 24016KT 25/M09 A2994 RMK A01 T02521093  RH  009%=      5-min Rain = 0
KBY1 142248Z 24014KT 25/M09 A2994 RMK A01 T02521092  RH  010%=      5-min Rain = 0
KBY1 142249Z 23017G23KT 25/M09 A2994 RMK A01 T02531091  RH  010%=      5-min Rain = 0
KBY1 142250Z 25016KT 25/M09 A2994 RMK A01 T02521090  RH  010%=      5-min Rain = 0
KBY1 142251Z 25020G26KT 25/M09 A2994 RMK A01 T02521089  RH  010%=      5-min Rain = 0
KBY1 142252Z 24021KT 25/M09 A2994 RMK A01 T02511089  RH  010%=      5-min Rain = 0
KBY1 142253Z 23020G25KT 25/M09 A2994 RMK A01 T02501088  RH  010%=      5-min Rain = 0
KBY1 142254Z 23015G20KT 25/M09 A2994 RMK A01 T02501089  RH  010%=      5-min Rain = 0
KBY1 142255Z 25016G23KT 25/M09 A2994 RMK A01 T02501088  RH  010%=      5-min Rain = 0
KBY1 142256Z 24016KT 25/M09 A2994 RMK A01 T02501088  RH  010%=      5-min Rain = 0
KBY1 142257Z 25016KT 25/M09 A2994 RMK A01 T02511088  RH  010%=      5-min Rain = 0
KBY1 142258Z 24019KT 25/M09 A2994 RMK A01 T02501089  RH  010%=      5-min Rain = 0
KBY1 142259Z 25019KT 25/M09 A2994 RMK A01 T02491090  RH  010%=      5-min Rain = 0
KBY1 142300Z 24018G25KT 25/M09 A2994 RMK A01 T02481091  RH  010%=      5-min Rain = 0
KBY1 142301Z 23017G22KT 25/M09 A2994 RMK A01 T02481091  RH  010%=      5-min Rain = 0
KBY1 142302Z 25015KT 25/M09 A2994 RMK A01 T02471091  RH  010%=      5-min Rain = 0
KBY1 142303Z 26014G19KT 25/M09 A2994 RMK A01 T02471091  RH  010%=      5-min Rain = 0
KBY1 142304Z 25019G25KT 25/M09 A2994 RMK A01 T02471091  RH  010%=      5-min Rain = 0
KBY1 142305Z 24017G23KT 25/M09 A2994 RMK A01 T02471091  RH  010%=      5-min Rain = 0
KBY1 142306Z 24017G22KT 25/M09 A2994 RMK A01 T02471091  RH  010%=      5-min Rain = 0
KBY1 142307Z 24015KT 25/M09 A2994 RMK A01 T02471091  RH  010%=      5-min Rain = 0
KBY1 142308Z 24017KT 25/M09 A2994 RMK A01 T02471091  RH  010%=      5-min Rain = 0
KBY1 142309Z 24014KT 25/M09 A2994 RMK A01 T02471091  RH  010%=      5-min Rain = 0
KBY1 142310Z 24011G16KT 25/M09 A2994 RMK A01 T02481090  RH  010%=      5-min Rain = 0
KBY1 142311Z 24018KT 25/M09 A2994 RMK A01 T02481090  RH  010%=      5-min Rain = 0
KBY1 142312Z 24018KT 25/M09 A2994 RMK A01 T02491089  RH  010%=      5-min Rain = 0
KBY1 142313Z 24015KT 25/M09 A2994 RMK A01 T02481089  RH  010%=      5-min Rain = 0
KBY1 142314Z 24013KT 25/M09 A2994 RMK A01 T02481088  RH  010%=      5-min Rain = 0
KBY1 142315Z 23015KT 25/M09 A2993 RMK A01 T02481088  RH  010%=      5-min Rain = 0
KBY1 142316Z 24014KT 25/M09 A2993 RMK A01 T02481088  RH  010%=      5-min Rain = 0
KBY1 142317Z 24013G18KT 25/M09 A2993 RMK A01 T02481087  RH  010%=      5-min Rain = 0
KBY1 142318Z 25017KT 25/M09 A2993 RMK A01 T02481088  RH  010%=      5-min Rain = 0
KBY1 142319Z 24015KT 25/M09 A2993 RMK A01 T02471088  RH  010%=      5-min Rain = 0
KBY1 142320Z 23013G18KT 25/M09 A2993 RMK A01 T02471088  RH  010%=      5-min Rain = 0
KBY1 142321Z 23012KT 25/M09 A2993 RMK A01 T02471087  RH  010%=      5-min Rain = 0
KBY1 142322Z 24014KT 25/M09 A2993 RMK A01 T02461087  RH  010%=      5-min Rain = 0
KBY1 142323Z 24015KT 25/M09 A2993 RMK A01 T02451088  RH  010%=      5-min Rain = 0
KBY1 142324Z 24015KT 25/M09 A2993 RMK A01 T02451088  RH  010%=      5-min Rain = 0
KBY1 142325Z 23014KT 24/M09 A2993 RMK A01 T02431088  RH  010%=      5-min Rain = 0
KBY1 142326Z 24011KT 24/M09 A2993 RMK A01 T02431087  RH  010%=      5-min Rain = 0
KBY1 142327Z 24011KT 24/M09 A2993 RMK A01 T02421087  RH  011%=      5-min Rain = 0
KBY1 142328Z 23010G15KT 24/M09 A2993 RMK A01 T02411087  RH  011%=      5-min Rain = 0
KBY1 142329Z 23014KT 24/M09 A2993 RMK A01 T02411087  RH  011%=      5-min Rain = 0
KBY1 142330Z 24014KT 24/M09 A2993 RMK A01 T02401087  RH  011%=      5-min Rain = 0
KBY1 142331Z 24014G19KT 24/M09 A2993 RMK A01 T02411087  RH  011%=      5-min Rain = 0
KBY1 142332Z 22014G22KT 24/M09 A2993 RMK A01 T02411086  RH  011%=      5-min Rain = 0
KBY1 142333Z 23014G21KT 24/M09 A2993 RMK A01 T02411086  RH  011%=      5-min Rain = 0
KBY1 142334Z 24011KT 24/M09 A2993 RMK A01 T02421085  RH  011%=      5-min Rain = 0
KBY1 142335Z 23010KT 24/M09 A2993 RMK A01 T02411085  RH  011%=      5-min Rain = 0
KBY1 142336Z 24012KT 24/M09 A2993 RMK A01 T02411085  RH  011%=      5-min Rain = 0
KBY1 142337Z 23010KT 24/M08 A2993 RMK A01 T02411084  RH  011%=      5-min Rain = 0
KBY1 142338Z 24009KT 24/M08 A2993 RMK A01 T02411084  RH  011%=      5-min Rain = 0
KBY1 142339Z 24013KT 24/M08 A2993 RMK A01 T02411082  RH  011%=      5-min Rain = 0
KBY1 142340Z 24011KT 24/M08 A2993 RMK A01 T02411081  RH  011%=      5-min Rain = 0
KBY1 142341Z 25011KT 24/M08 A2993 RMK A01 T02411081  RH  011%=      5-min Rain = 0
KBY1 142342Z 24010KT 24/M08 A2993 RMK A01 T02411080  RH  011%=      5-min Rain = 0
KBY1 142343Z 24009KT 24/M08 A2993 RMK A01 T02411080  RH  011%=      5-min Rain = 0
KBY1 142344Z 24008KT 24/M08 A2993 RMK A01 T02411080  RH  011%=      5-min Rain = 0
KBY1 142345Z 24009KT 24/M08 A2993 RMK A01 T02401080  RH  011%=      5-min Rain = 0
KBY1 142346Z 23010KT 24/M08 A2993 RMK A01 T02391080  RH  011%=      5-min Rain = 0
KBY1 142347Z 24011KT 24/M08 A2993 RMK A01 T02391079  RH  011%=      5-min Rain = 0
KBY1 142348Z 24010KT 24/M08 A2993 RMK A01 T02391080  RH  011%=      5-min Rain = 0
KBY1 142349Z 24007KT 24/M08 A2993 RMK A01 T02381080  RH  011%=      5-min Rain = 0
KBY1 142350Z 24007KT 24/M08 A2993 RMK A01 T02371080  RH  011%=      5-min Rain = 0
KBY1 142351Z 23009KT 24/M08 A2993 RMK A01 T02371080  RH  011%=      5-min Rain = 0
KBY1 142352Z 24008KT 24/M08 A2992 RMK A01 T02361080  RH  012%=      5-min Rain = 0
KBY1 142353Z 24007KT 24/M08 A2992 RMK A01 T02351077  RH  012%=      5-min Rain = 0
KBY1 142354Z 23010KT 23/M08 A2992 RMK A01 T02341077  RH  012%=      5-min Rain = 0
KBY1 142355Z 23010KT 23/M08 A2993 RMK A01 T02341077  RH  012%=      5-min Rain = 0
KBY1 142356Z 24008KT 23/M08 A2993 RMK A01 T02341076  RH  012%=      5-min Rain = 0
KBY1 142357Z 23008KT 23/M08 A2993 RMK A01 T02341075  RH  012%=      5-min Rain = 0
KBY1 142358Z 23007KT 23/M08 A2993 RMK A01 T02331075  RH  012%=      5-min Rain = 0
KBY1 142359Z 23008KT 23/M07 A2993 RMK A01 T02321074  RH  012%=      5-min Rain = 0
KBY1 150000Z 24008KT 23/M07 A2993 RMK A01 T02311073  RH  013%=      5-min Rain = 0
KBY1 150001Z 23007KT 23/M07 A2993 RMK A01 T02311072  RH  013%=      5-min Rain = 0
KBY1 150002Z 23006KT 23/M07 A2993 RMK A01 T02311071  RH  013%=      5-min Rain = 0
KBY1 150003Z 23009KT 23/M07 A2993 RMK A01 T02311069  RH  013%=      5-min Rain = 0
KBY1 150004Z 23008KT 23/M07 A2993 RMK A01 T02301067  RH  013%=      5-min Rain = 0
KBY1 150005Z 23008KT 23/M07 A2993 RMK A01 T02301065  RH  013%=      5-min Rain = 0
KBY1 150006Z 24008KT 23/M06 A2993 RMK A01 T02291064  RH  014%=      5-min Rain = 0
KBY1 150007Z 24007KT 23/M06 A2993 RMK A01 T02291063  RH  014%=      5-min Rain = 0
KBY1 150008Z 23007KT 23/M06 A2993 RMK A01 T02281062  RH  014%=      5-min Rain = 0
KBY1 150009Z 24008KT 23/M06 A2993 RMK A01 T02271060  RH  014%=      5-min Rain = 0
KBY1 150010Z 24007KT 23/M06 A2993 RMK A01 T02271058  RH  014%=      5-min Rain = 0
KBY1 150011Z 24006KT 23/M06 A2993 RMK A01 T02261058  RH  014%=      5-min Rain = 0
KBY1 150012Z 23006KT 23/M06 A2993 RMK A01 T02251058  RH  015%=      5-min Rain = 0
KBY1 150013Z 23007KT 22/M06 A2993 RMK A01 T02241057  RH  015%=      5-min Rain = 0
KBY1 150014Z 23006KT 22/M06 A2993 RMK A01 T02231057  RH  015%=      5-min Rain = 0
KBY1 150015Z 23008KT 22/M06 A2993 RMK A01 T02231057  RH  015%=      5-min Rain = 0
KBY1 150016Z 23006KT 22/M06 A2993 RMK A01 T02231056  RH  015%=      5-min Rain = 0
KBY1 150017Z 22006KT 22/M05 A2993 RMK A01 T02231054  RH  015%=      5-min Rain = 0
KBY1 150018Z 22006KT 22/M05 A2993 RMK A01 T02221053  RH  015%=      5-min Rain = 0
KBY1 150019Z 22007KT 22/M05 A2993 RMK A01 T02231052  RH  015%=      5-min Rain = 0
KBY1 150020Z 23007KT 22/M05 A2993 RMK A01 T02221051  RH  016%=      5-min Rain = 0
KBY1 150021Z 23007KT 22/M05 A2993 RMK A01 T02241051  RH  016%=      5-min Rain = 0
KBY1 150022Z 21007KT 22/M05 A2993 RMK A01 T02231051  RH  016%=      5-min Rain = 0
KBY1 150023Z 21007KT 22/M05 A2993 RMK A01 T02221050  RH  016%=      5-min Rain = 0
KBY1 150024Z 21007KT 22/M05 A2993 RMK A01 T02211051  RH  016%=      5-min Rain = 0
KBY1 150025Z 21007KT 22/M05 A2993 RMK A01 T02191051  RH  016%=      5-min Rain = 0
KBY1 150026Z 20007KT 22/M05 A2993 RMK A01 T02171051  RH  016%=      5-min Rain = 0
KBY1 150027Z 20007KT 22/M05 A2993 RMK A01 T02151052  RH  016%=      5-min Rain = 0
KBY1 150028Z 20006KT 21/M05 A2993 RMK A01 T02141051  RH  016%=      5-min Rain = 0
KBY1 150029Z 21005KT 21/M05 A2993 RMK A01 T02131052  RH  016%=      5-min Rain = 0
KBY1 150030Z 21007KT 21/M05 A2993 RMK A01 T02111054  RH  016%=      5-min Rain = 0
KBY1 150031Z 20007KT 21/M05 A2993 RMK A01 T02101054  RH  016%=      5-min Rain = 0
KBY1 150032Z 20007KT 21/M05 A2993 RMK A01 T02101053  RH  017%=      5-min Rain = 0
KBY1 150033Z 20008KT 21/M06 A2993 RMK A01 T02101055  RH  016%=      5-min Rain = 0
KBY1 150034Z 20009KT 21/M06 A2993 RMK A01 T02101056  RH  016%=      5-min Rain = 0
KBY1 150035Z 20008KT 21/M06 A2993 RMK A01 T02121057  RH  016%=      5-min Rain = 0
KBY1 150036Z 20008KT 21/M06 A2993 RMK A01 T02121058  RH  016%=      5-min Rain = 0
KBY1 150037Z 20007KT 21/M06 A2993 RMK A01 T02111058  RH  016%=      5-min Rain = 0
KBY1 150038Z 20008KT 21/M06 A2993 RMK A01 T02091060  RH  016%=      5-min Rain = 0
KBY1 150039Z 20009KT 21/M06 A2993 RMK A01 T02091061  RH  016%=      5-min Rain = 0
KBY1 150040Z 20009KT 21/M06 A2993 RMK A01 T02091062  RH  016%=      5-min Rain = 0
KBY1 150041Z 20008KT 21/M06 A2993 RMK A01 T02091062  RH  016%=      5-min Rain = 0
KBY1 150042Z 20007KT 21/M06 A2993 RMK A01 T02081062  RH  016%=      5-min Rain = 0
KBY1 150043Z 20008KT 21/M06 A2993 RMK A01 T02061062  RH  016%=      5-min Rain = 0
KBY1 150044Z 20008KT 21/M06 A2993 RMK A01 T02051063  RH  016%=      5-min Rain = 0
KBY1 150045Z 20007KT 20/M06 A2993 RMK A01 T02041063  RH  016%=      5-min Rain = 0
KBY1 150046Z 20007KT 20/M06 A2993 RMK A01 T02031063  RH  016%=      5-min Rain = 0
KBY1 150047Z 20007KT 20/M06 A2993 RMK A01 T02021064  RH  016%=      5-min Rain = 0
KBY1 150048Z 20008KT 20/M06 A2993 RMK A01 T02011064  RH  016%=      5-min Rain = 0
KBY1 150049Z 20007KT 20/M06 A2993 RMK A01 T02011064  RH  016%=      5-min Rain = 0
KBY1 150050Z 20007KT 20/M07 A2993 RMK A01 T02001065  RH  016%=      5-min Rain = 0
KBY1 150051Z 20008KT 20/M06 A2993 RMK A01 T01991064  RH  016%=      5-min Rain = 0
KBY1 150052Z 20007KT 20/M07 A2993 RMK A01 T01981065  RH  016%=      5-min Rain = 0
KBY1 150053Z 20007KT 20/M06 A2993 RMK A01 T01981064  RH  016%=      5-min Rain = 0
KBY1 150054Z 20007KT 20/M07 A2993 RMK A01 T01971065  RH  016%=      5-min Rain = 0
KBY1 150055Z 21008KT 20/M06 A2993 RMK A01 T01971064  RH  017%=      5-min Rain = 0
KBY1 150056Z 21008KT 20/M06 A2993 RMK A01 T01961064  RH  017%=      5-min Rain = 0
KBY1 150057Z 21007KT 20/M06 A2993 RMK A01 T01961064  RH  017%=      5-min Rain = 0
KBY1 150058Z 21008KT 20/M06 A2993 RMK A01 T01961064  RH  017%=      5-min Rain = 0
KBY1 150059Z 21007KT 20/M06 A2993 RMK A01 T01951064  RH  017%=      5-min Rain = 0
KBY1 150100Z 21008KT 20/M06 A2993 RMK A01 T01951064  RH  017%=      5-min Rain = 0
KBY1 150101Z 21008KT 19/M06 A2993 RMK A01 T01941063  RH  017%=      5-min Rain = 0
KBY1 150102Z 21009KT 19/M06 A2993 RMK A01 T01931063  RH  017%=      5-min Rain = 0
KBY1 150103Z 21008KT 19/M06 A2993 RMK A01 T01931063  RH  017%=      5-min Rain = 0
KBY1 150104Z 21008KT 19/M06 A2993 RMK A01 T01941063  RH  017%=      5-min Rain = 0
KBY1 150105Z 21009KT 19/M06 A2993 RMK A01 T01931063  RH  017%=      5-min Rain = 0
KBY1 150106Z 21009KT 19/M06 A2993 RMK A01 T01921063  RH  017%=      5-min Rain = 0
KBY1 150107Z 21008KT 19/M06 A2993 RMK A01 T01931063  RH  017%=      5-min Rain = 0
KBY1 150108Z 21009KT 19/M06 A2993 RMK A01 T01931063  RH  017%=      5-min Rain = 0
KBY1 150109Z 22008KT 19/M06 A2993 RMK A01 T01931063  RH  017%=      5-min Rain = 0
KBY1 150110Z 22008KT 19/M06 A2993 RMK A01 T01931063  RH  017%=      5-min Rain = 0
KBY1 150111Z 22010KT 19/M06 A2993 RMK A01 T01931063  RH  017%=      5-min Rain = 0
KBY1 150112Z 22009KT 19/M06 A2993 RMK A01 T01941063  RH  017%=      5-min Rain = 0
KBY1 150113Z 22010KT 19/M06 A2993 RMK A01 T01941063  RH  017%=      5-min Rain = 0
KBY1 150114Z 22009KT 20/M06 A2993 RMK A01 T01951063  RH  017%=      5-min Rain = 0
KBY1 150115Z 22010KT 20/M06 A2993 RMK A01 T01951063  RH  017%=      5-min Rain = 0
KBY1 150116Z 21009KT 20/M06 A2993 RMK A01 T01951063  RH  017%=      5-min Rain = 0
KBY1 150117Z 21008KT 20/M06 A2993 RMK A01 T01951063  RH  017%=      5-min Rain = 0
KBY1 150118Z 22009KT 20/M06 A2993 RMK A01 T01951063  RH  017%=      5-min Rain = 0
KBY1 150119Z 22009KT 19/M06 A2993 RMK A01 T01941063  RH  017%=      5-min Rain = 0
KBY1 150120Z 22008KT 19/M06 A2993 RMK A01 T01941063  RH  017%=      5-min Rain = 0
KBY1 150121Z 22008KT 19/M06 A2993 RMK A01 T01931063  RH  017%=      5-min Rain = 0
KBY1 150122Z 22008KT 19/M06 A2993 RMK A01 T01921063  RH  017%=      5-min Rain = 0
KBY1 150123Z 23008KT 19/M06 A2993 RMK A01 T01911063  RH  017%=      5-min Rain = 0
KBY1 150124Z 23008KT 19/M06 A2993 RMK A01 T01921063  RH  017%=      5-min Rain = 0
KBY1 150125Z 25009KT 19/M06 A2993 RMK A01 T01931063  RH  017%=      5-min Rain = 0
KBY1 150126Z 27009KT 19/M06 A2993 RMK A01 T01931064  RH  017%=      5-min Rain = 0
KBY1 150127Z 26008KT 19/M06 A2994 RMK A01 T01921064  RH  017%=      5-min Rain = 0
KBY1 150128Z 25008KT 19/M06 A2994 RMK A01 T01911064  RH  017%=      5-min Rain = 0
KBY1 150129Z 26007KT 19/M06 A2994 RMK A01 T01901064  RH  017%=      5-min Rain = 0
KBY1 150130Z 26007KT 19/M06 A2994 RMK A01 T01891064  RH  017%=      5-min Rain = 0
KBY1 150131Z 25007KT 19/M06 A2994 RMK A01 T01881064  RH  018%=      5-min Rain = 0
KBY1 150132Z 24006KT 19/M06 A2994 RMK A01 T01881063  RH  018%=      5-min Rain = 0
KBY1 150133Z 23007KT 19/M06 A2994 RMK A01 T01871063  RH  018%=      5-min Rain = 0
KBY1 150134Z 23006KT 19/M06 A2994 RMK A01 T01871063  RH  018%=      5-min Rain = 0
KBY1 150135Z 23006KT 19/M06 A2994 RMK A01 T01861064  RH  018%=      5-min Rain = 0
KBY1 150136Z 23006KT 18/M06 A2994 RMK A01 T01841064  RH  018%=      5-min Rain = 0
KBY1 150137Z 23006KT 18/M06 A2994 RMK A01 T01831063  RH  018%=      5-min Rain = 0
KBY1 150138Z 23006KT 18/M06 A2994 RMK A01 T01821063  RH  018%=      5-min Rain = 0
KBY1 150139Z 22006KT 18/M06 A2993 RMK A01 T01821062  RH  018%=      5-min Rain = 0
KBY1 150140Z 23006KT 18/M06 A2993 RMK A01 T01821062  RH  018%=      5-min Rain = 0
KBY1 150141Z 23006KT 18/M06 A2993 RMK A01 T01831062  RH  018%=      5-min Rain = 0
KBY1 150142Z 23006KT 18/M06 A2993 RMK A01 T01841062  RH  018%=      5-min Rain = 0
KBY1 150143Z 23006KT 18/M06 A2993 RMK A01 T01841062  RH  018%=      5-min Rain = 0
KBY1 150144Z 23006KT 18/M06 A2993 RMK A01 T01841062  RH  018%=      5-min Rain = 0
KBY1 150145Z 24006KT 18/M06 A2993 RMK A01 T01841062  RH  018%=      5-min Rain = 0
KBY1 150146Z 23007KT 18/M06 A2993 RMK A01 T01841062  RH  018%=      5-min Rain = 0
KBY1 150147Z 24006KT 18/M06 A2993 RMK A01 T01841061  RH  018%=      5-min Rain = 0
KBY1 150148Z 23006KT 19/M06 A2993 RMK A01 T01851061  RH  018%=      5-min Rain = 0
KBY1 150149Z 24006KT 19/M06 A2993 RMK A01 T01851061  RH  018%=      5-min Rain = 0
KBY1 150150Z 24006KT 19/M06 A2993 RMK A01 T01851061  RH  018%=      5-min Rain = 0
KBY1 150151Z 24006KT 19/M06 A2993 RMK A01 T01851061  RH  018%=      5-min Rain = 0
KBY1 150152Z 24005KT 19/M06 A2993 RMK A01 T01851061  RH  018%=      5-min Rain = 0
KBY1 150153Z 23006KT 19/M06 A2993 RMK A01 T01851061  RH  018%=      5-min Rain = 0
KBY1 150154Z 23005KT 19/M06 A2993 RMK A01 T01851060  RH  018%=      5-min Rain = 0
KBY1 150155Z 24006KT 19/M06 A2993 RMK A01 T01851060  RH  018%=      5-min Rain = 0
KBY1 150156Z 24006KT 19/M06 A2993 RMK A01 T01851060  RH  018%=      5-min Rain = 0
KBY1 150157Z 24006KT 18/M06 A2993 RMK A01 T01841060  RH  018%=      5-min Rain = 0
KBY1 150158Z 24006KT 19/M06 A2993 RMK A01 T01851060  RH  018%=      5-min Rain = 0
KBY1 150159Z 24006KT 19/M06 A2994 RMK A01 T01851060  RH  018%=      5-min Rain = 0
KBY1 150200Z 24007KT 19/M06 A2994 RMK A01 T01861060  RH  018%=      5-min Rain = 0
KBY1 150201Z 24006KT 19/M06 A2994 RMK A01 T01861060  RH  018%=      5-min Rain = 0
KBY1 150202Z 24006KT 19/M06 A2994 RMK A01 T01861060  RH  018%=      5-min Rain = 0
KBY1 150203Z 24007KT 19/M06 A2994 RMK A01 T01871060  RH  018%=      5-min Rain = 0
KBY1 150204Z 24006KT 19/M06 A2994 RMK A01 T01871060  RH  018%=      5-min Rain = 0
KBY1 150205Z 24006KT 19/M06 A2994 RMK A01 T01871060  RH  018%=      5-min Rain = 0
KBY1 150206Z 24006KT 19/M06 A2994 RMK A01 T01871060  RH  018%=      5-min Rain = 0
KBY1 150207Z 25006KT 19/M06 A2994 RMK A01 T01871059  RH  018%=      5-min Rain = 0
KBY1 150208Z 25006KT 19/M06 A2994 RMK A01 T01871060  RH  018%=      5-min Rain = 0
KBY1 150209Z 24006KT 19/M06 A2994 RMK A01 T01871060  RH  018%=      5-min Rain = 0
KBY1 150210Z 24006KT 19/M06 A2994 RMK A01 T01871059  RH  018%=      5-min Rain = 0
KBY1 150211Z 24006KT 19/M06 A2994 RMK A01 T01871059  RH  018%=      5-min Rain = 0
KBY1 150212Z 24007KT 19/M06 A2994 RMK A01 T01871060  RH  018%=      5-min Rain = 0
KBY1 150213Z 24007KT 19/M06 A2994 RMK A01 T01881059  RH  018%=      5-min Rain = 0
KBY1 150214Z 24006KT 19/M06 A2994 RMK A01 T01881059  RH  018%=      5-min Rain = 0
KBY1 150215Z 24007KT 19/M06 A2994 RMK A01 T01881060  RH  018%=      5-min Rain = 0
KBY1 150216Z 25006KT 19/M06 A2994 RMK A01 T01881060  RH  018%=      5-min Rain = 0
KBY1 150217Z 24006KT 19/M06 A2993 RMK A01 T01891060  RH  018%=      5-min Rain = 0
KBY1 150218Z 24006KT 19/M06 A2993 RMK A01 T01891060  RH  018%=      5-min Rain = 0
KBY1 150219Z 24006KT 19/M06 A2993 RMK A01 T01891060  RH  018%=      5-min Rain = 0
KBY1 150220Z 25006KT 19/M06 A2993 RMK A01 T01891060  RH  018%=      5-min Rain = 0
KBY1 150221Z 24005KT 19/M06 A2993 RMK A01 T01891060  RH  018%=      5-min Rain = 0
KBY1 150222Z 25006KT 19/M06 A2993 RMK A01 T01881060  RH  018%=      5-min Rain = 0
KBY1 150223Z 24007KT 19/M06 A2993 RMK A01 T01881060  RH  018%=      5-min Rain = 0
KBY1 150224Z 24006KT 19/M06 A2994 RMK A01 T01881060  RH  018%=      5-min Rain = 0
KBY1 150225Z 24006KT 19/M06 A2993 RMK A01 T01881061  RH  018%=      5-min Rain = 0
KBY1 150226Z 24006KT 19/M06 A2993 RMK A01 T01881060  RH  018%=      5-min Rain = 0
KBY1 150227Z 24007KT 19/M06 A2994 RMK A01 T01881060  RH  018%=      5-min Rain = 0
KBY1 150228Z 25007KT 19/M06 A2994 RMK A01 T01881060  RH  018%=      5-min Rain = 0
KBY1 150229Z 25006KT 19/M06 A2994 RMK A01 T01891060  RH  018%=      5-min Rain = 0
KBY1 150230Z 24006KT 19/M06 A2994 RMK A01 T01891060  RH  018%=      5-min Rain = 0
KBY1 150231Z 25006KT 19/M06 A2994 RMK A01 T01891060  RH  018%=      5-min Rain = 0
KBY1 150232Z 25006KT 19/M06 A2994 RMK A01 T01881060  RH  018%=      5-min Rain = 0
KBY1 150233Z 25005KT 19/M06 A2994 RMK A01 T01881060  RH  018%=      5-min Rain = 0
KBY1 150234Z 25005KT 19/M06 A2994 RMK A01 T01881059  RH  018%=      5-min Rain = 0
KBY1 150235Z 25005KT 19/M06 A2994 RMK A01 T01881060  RH  018%=      5-min Rain = 0
KBY1 150236Z 25006KT 19/M06 A2994 RMK A01 T01881059  RH  018%=      5-min Rain = 0
KBY1 150237Z 25005KT 19/M06 A2994 RMK A01 T01881059  RH  018%=      5-min Rain = 0
KBY1 150238Z 25006KT 19/M06 A2994 RMK A01 T01871059  RH  018%=      5-min Rain = 0
KBY1 150239Z 26005KT 19/M06 A2994 RMK A01 T01881058  RH  018%=      5-min Rain = 0
KBY1 150240Z 26005KT 19/M06 A2994 RMK A01 T01871059  RH  018%=      5-min Rain = 0
KBY1 150241Z 25005KT 19/M06 A2994 RMK A01 T01881058  RH  018%=      5-min Rain = 0
KBY1 150242Z 25004KT 19/M06 A2994 RMK A01 T01881058  RH  018%=      5-min Rain = 0
KBY1 150243Z 26004KT 19/M06 A2994 RMK A01 T01881058  RH  018%=      5-min Rain = 0
KBY1 150244Z 26004KT 19/M06 A2994 RMK A01 T01881058  RH  018%=      5-min Rain = 0
KBY1 150245Z 26004KT 19/M06 A2994 RMK A01 T01881058  RH  018%=      5-min Rain = 0
KBY1 150246Z 26005KT 19/M06 A2994 RMK A01 T01881058  RH  018%=      5-min Rain = 0
KBY1 150247Z 26004KT 19/M06 A2994 RMK A01 T01881057  RH  018%=      5-min Rain = 0
KBY1 150248Z 26004KT 19/M06 A2994 RMK A01 T01871058  RH  018%=      5-min Rain = 0
KBY1 150249Z 27005KT 19/M06 A2994 RMK A01 T01881058  RH  018%=      5-min Rain = 0
KBY1 150250Z 26004KT 19/M06 A2994 RMK A01 T01871058  RH  018%=      5-min Rain = 0
KBY1 150251Z 27004KT 19/M06 A2993 RMK A01 T01871058  RH  018%=      5-min Rain = 0
KBY1 150252Z 26004KT 19/M06 A2993 RMK A01 T01861059  RH  018%=      5-min Rain = 0
KBY1 150253Z 26004KT 19/M06 A2994 RMK A01 T01861059  RH  018%=      5-min Rain = 0
KBY1 150254Z 27004KT 19/M06 A2994 RMK A01 T01851059  RH  019%=      5-min Rain = 0
KBY1 150255Z 27005KT 18/M06 A2994 RMK A01 T01841058  RH  019%=      5-min Rain = 0
KBY1 150256Z 26005KT 18/M06 A2994 RMK A01 T01841059  RH  019%=      5-min Rain = 0
KBY1 150257Z 26005KT 18/M06 A2994 RMK A01 T01841059  RH  019%=      5-min Rain = 0
KBY1 150258Z 26005KT 18/M06 A2994 RMK A01 T01841059  RH  019%=      5-min Rain = 0
KBY1 150259Z 26005KT 18/M06 A2994 RMK A01 T01841059  RH  019%=      5-min Rain = 0
KBY1 150300Z 26004KT 18/M06 A2994 RMK A01 T01841059  RH  019%=      5-min Rain = 0
KBY1 150301Z 25005KT 18/M06 A2994 RMK A01 T01841059  RH  019%=      5-min Rain = 0
KBY1 150302Z 26005KT 18/M06 A2994 RMK A01 T01831060  RH  019%=      5-min Rain = 0
KBY1 150303Z 26004KT 18/M06 A2994 RMK A01 T01831060  RH  019%=      5-min Rain = 0
KBY1 150304Z 26004KT 18/M06 A2994 RMK A01 T01831059  RH  019%=      5-min Rain = 0
KBY1 150305Z 26005KT 18/M06 A2994 RMK A01 T01831060  RH  019%=      5-min Rain = 0
KBY1 150306Z 26004KT 18/M06 A2994 RMK A01 T01831060  RH  019%=      5-min Rain = 0
KBY1 150307Z 26004KT 18/M06 A2994 RMK A01 T01821060  RH  019%=      5-min Rain = 0
KBY1 150308Z 26003KT 18/M06 A2994 RMK A01 T01811061  RH  019%=      5-min Rain = 0
KBY1 150309Z 26003KT 18/M06 A2994 RMK A01 T01801061  RH  019%=      5-min Rain = 0
KBY1 150310Z 26003KT 18/M06 A2994 RMK A01 T01801060  RH  019%=      5-min Rain = 0
KBY1 150311Z 25004KT 18/M06 A2994 RMK A01 T01801060  RH  019%=      5-min Rain = 0
KBY1 150312Z 24004KT 18/M06 A2993 RMK A01 T01811060  RH  019%=      5-min Rain = 0
KBY1 150313Z 25004KT 18/M06 A2993 RMK A01 T01811060  RH  019%=      5-min Rain = 0
KBY1 150314Z 25005KT 18/M06 A2994 RMK A01 T01821060  RH  019%=      5-min Rain = 0
KBY1 150315Z 25007KT 18/M06 A2994 RMK A01 T01831059  RH  019%=      5-min Rain = 0
KBY1 150316Z 25006KT 19/M06 A2994 RMK A01 T01851058  RH  019%=      5-min Rain = 0
KBY1 150317Z 25006KT 19/M06 A2994 RMK A01 T01861059  RH  018%=      5-min Rain = 0
KBY1 150318Z 25006KT 19/M06 A2994 RMK A01 T01861059  RH  018%=      5-min Rain = 0
KBY1 150319Z 25006KT 19/M06 A2994 RMK A01 T01861059  RH  018%=      5-min Rain = 0
KBY1 150320Z 26006KT 19/M06 A2994 RMK A01 T01871059  RH  018%=      5-min Rain = 0
KBY1 150321Z 26005KT 19/M06 A2994 RMK A01 T01861059  RH  018%=      5-min Rain = 0
KBY1 150322Z 26006KT 19/M06 A2994 RMK A01 T01861059  RH  018%=      5-min Rain = 0
KBY1 150323Z 27005KT 19/M06 A2995 RMK A01 T01851060  RH  018%=      5-min Rain = 0
KBY1 150324Z 26006KT 18/M06 A2995 RMK A01 T01841060  RH  019%=      5-min Rain = 0
KBY1 150325Z 26006KT 18/M06 A2995 RMK A01 T01831059  RH  019%=      5-min Rain = 0
KBY1 150326Z 26006KT 18/M06 A2995 RMK A01 T01821059  RH  019%=      5-min Rain = 0
KBY1 150327Z 25005KT 18/M06 A2995 RMK A01 T01821059  RH  019%=      5-min Rain = 0
KBY1 150328Z 25006KT 18/M06 A2995 RMK A01 T01821058  RH  019%=      5-min Rain = 0
KBY1 150329Z 25006KT 18/M06 A2995 RMK A01 T01821058  RH  019%=      5-min Rain = 0
KBY1 150330Z 25007KT 18/M06 A2995 RMK A01 T01821057  RH  019%=      5-min Rain = 0
KBY1 150331Z 25006KT 18/M06 A2995 RMK A01 T01821057  RH  019%=      5-min Rain = 0
KBY1 150332Z 24005KT 18/M06 A2995 RMK A01 T01831056  RH  019%=      5-min Rain = 0
KBY1 150333Z 24007KT 18/M06 A2995 RMK A01 T01831056  RH  019%=      5-min Rain = 0
KBY1 150334Z 24009KT 18/M06 A2995 RMK A01 T01841055  RH  019%=      5-min Rain = 0
KBY1 150335Z 24009KT 19/M05 A2995 RMK A01 T01861053  RH  019%=      5-min Rain = 0
KBY1 150336Z 24009KT 19/M05 A2995 RMK A01 T01881052  RH  019%=      5-min Rain = 0
KBY1 150337Z 24007KT 19/M05 A2995 RMK A01 T01901052  RH  019%=      5-min Rain = 0
KBY1 150338Z 24007KT 19/M05 A2995 RMK A01 T01911052  RH  019%=      5-min Rain = 0
KBY1 150339Z 24007KT 19/M05 A2995 RMK A01 T01901052  RH  019%=      5-min Rain = 0
KBY1 150340Z 24007KT 19/M05 A2995 RMK A01 T01891052  RH  019%=      5-min Rain = 0
KBY1 150341Z 24007KT 19/M05 A2995 RMK A01 T01881052  RH  019%=      5-min Rain = 0
KBY1 150342Z 24006KT 19/M05 A2995 RMK A01 T01881052  RH  019%=      5-min Rain = 0
KBY1 150343Z 24007KT 19/M05 A2995 RMK A01 T01881052  RH  019%=      5-min Rain = 0
KBY1 150344Z 24006KT 19/M05 A2995 RMK A01 T01871053  RH  019%=      5-min Rain = 0
KBY1 150345Z 24005KT 19/M05 A2995 RMK A01 T01881052  RH  019%=      5-min Rain = 0
KBY1 150346Z 24005KT 19/M05 A2995 RMK A01 T01871052  RH  019%=      5-min Rain = 0
KBY1 150347Z 24005KT 19/M05 A2995 RMK A01 T01871052  RH  019%=      5-min Rain = 0
KBY1 150348Z 25005KT 19/M05 A2995 RMK A01 T01861052  RH  019%=      5-min Rain = 0
KBY1 150349Z 25005KT 19/M05 A2995 RMK A01 T01861052  RH  019%=      5-min Rain = 0
KBY1 150350Z 25006KT 19/M05 A2995 RMK A01 T01861052  RH  019%=      5-min Rain = 0
KBY1 150351Z 24007KT 19/M05 A2995 RMK A01 T01861052  RH  019%=      5-min Rain = 0
KBY1 150352Z 25007KT 19/M05 A2995 RMK A01 T01861052  RH  019%=      5-min Rain = 0
KBY1 150353Z 25006KT 19/M05 A2995 RMK A01 T01861051  RH  019%=      5-min Rain = 0
KBY1 150354Z 25006KT 19/M05 A2995 RMK A01 T01861051  RH  020%=      5-min Rain = 0
KBY1 150355Z 25006KT 19/M05 A2995 RMK A01 T01871051  RH  019%=      5-min Rain = 0
KBY1 150356Z 25006KT 19/M05 A2995 RMK A01 T01861051  RH  020%=      5-min Rain = 0
KBY1 150357Z 25006KT 19/M05 A2995 RMK A01 T01861050  RH  020%=      5-min Rain = 0
KBY1 150358Z 25006KT 19/M05 A2996 RMK A01 T01851050  RH  020%=      5-min Rain = 0
KBY1 150359Z 25006KT 19/M05 A2996 RMK A01 T01851049  RH  020%=      5-min Rain = 0
KBY1 150400Z 24005KT 19/M05 A2996 RMK A01 T01851048  RH  020%=      5-min Rain = 0
KBY1 150401Z 24006KT 19/M05 A2995 RMK A01 T01851049  RH  020%=      5-min Rain = 0
KBY1 150402Z 24006KT 19/M05 A2995 RMK A01 T01851048  RH  020%=      5-min Rain = 0
KBY1 150403Z 24007KT 18/M05 A2996 RMK A01 T01841049  RH  020%=      5-min Rain = 0
KBY1 150404Z 24007KT 18/M05 A2995 RMK A01 T01841048  RH  020%=      5-min Rain = 0
KBY1 150405Z 24007KT 19/M05 A2995 RMK A01 T01851048  RH  020%=      5-min Rain = 0
KBY1 150406Z 24007KT 18/M05 A2995 RMK A01 T01841048  RH  020%=      5-min Rain = 0
KBY1 150407Z 24007KT 18/M05 A2995 RMK A01 T01841048  RH  020%=      5-min Rain = 0
KBY1 150408Z 24007KT 18/M05 A2995 RMK A01 T01831048  RH  020%=      5-min Rain = 0
KBY1 150409Z 24007KT 18/M05 A2995 RMK A01 T01831048  RH  020%=      5-min Rain = 0
KBY1 150410Z 24006KT 18/M05 A2995 RMK A01 T01841048  RH  020%=      5-min Rain = 0
KBY1 150411Z 24007KT 18/M05 A2995 RMK A01 T01831048  RH  020%=      5-min Rain = 0
KBY1 150412Z 24007KT 18/M05 A2995 RMK A01 T01831048  RH  020%=      5-min Rain = 0
KBY1 150413Z 24007KT 18/M05 A2995 RMK A01 T01821049  RH  020%=      5-min Rain = 0
KBY1 150414Z 25007KT 18/M05 A2995 RMK A01 T01821049  RH  020%=      5-min Rain = 0
KBY1 150415Z 25007KT 18/M05 A2995 RMK A01 T01821049  RH  020%=      5-min Rain = 0
KBY1 150416Z 25007KT 18/M05 A2995 RMK A01 T01811050  RH  020%=      5-min Rain = 0
KBY1 150417Z 25006KT 18/M05 A2995 RMK A01 T01811050  RH  020%=      5-min Rain = 0
KBY1 150418Z 25006KT 18/M05 A2995 RMK A01 T01811049  RH  020%=      5-min Rain = 0
KBY1 150419Z 25007KT 18/M05 A2995 RMK A01 T01811049  RH  020%=      5-min Rain = 0
KBY1 150420Z 25006KT 18/M05 A2995 RMK A01 T01811050  RH  020%=      5-min Rain = 0
KBY1 150421Z 24005KT 18/M05 A2995 RMK A01 T01811050  RH  020%=      5-min Rain = 0
KBY1 150422Z 25005KT 18/M05 A2995 RMK A01 T01811050  RH  020%=      5-min Rain = 0
KBY1 150423Z 25005KT 18/M05 A2995 RMK A01 T01791050  RH  021%=      5-min Rain = 0
KBY1 150424Z 24005KT 18/M05 A2994 RMK A01 T01781050  RH  021%=      5-min Rain = 0
KBY1 150425Z 24005KT 18/M05 A2994 RMK A01 T01781050  RH  021%=      5-min Rain = 0
KBY1 150426Z 25005KT 18/M05 A2994 RMK A01 T01771050  RH  021%=      5-min Rain = 0
KBY1 150427Z 25005KT 18/M05 A2994 RMK A01 T01761050  RH  021%=      5-min Rain = 0
KBY1 150428Z 25005KT 18/M05 A2994 RMK A01 T01761050  RH  021%=      5-min Rain = 0
KBY1 150429Z 25005KT 18/M05 A2994 RMK A01 T01761050  RH  021%=      5-min Rain = 0
KBY1 150430Z 24005KT 18/M05 A2994 RMK A01 T01761050  RH  021%=      5-min Rain = 0
KBY1 150431Z 24006KT 18/M05 A2995 RMK A01 T01761050  RH  021%=      5-min Rain = 0
KBY1 150432Z 24006KT 18/M05 A2995 RMK A01 T01751050  RH  021%=      5-min Rain = 0
KBY1 150433Z 24006KT 18/M05 A2995 RMK A01 T01751050  RH  021%=      5-min Rain = 0
KBY1 150434Z 24007KT 18/M05 A2994 RMK A01 T01751050  RH  021%=      5-min Rain = 0
KBY1 150435Z 23007KT 18/M05 A2994 RMK A01 T01761050  RH  021%=      5-min Rain = 0
KBY1 150436Z 24007KT 18/M05 A2994 RMK A01 T01771050  RH  021%=      5-min Rain = 0
KBY1 150437Z 24007KT 18/M05 A2994 RMK A01 T01781050  RH  021%=      5-min Rain = 0
KBY1 150438Z 24007KT 18/M05 A2995 RMK A01 T01781049  RH  021%=      5-min Rain = 0
KBY1 150439Z 24007KT 18/M05 A2995 RMK A01 T01781050  RH  021%=      5-min Rain = 0
KBY1 150440Z 24007KT 18/M05 A2995 RMK A01 T01781050  RH  021%=      5-min Rain = 0
KBY1 150441Z 24007KT 18/M05 A2995 RMK A01 T01781050  RH  021%=      5-min Rain = 0
KBY1 150442Z 25008KT 18/M05 A2995 RMK A01 T01771050  RH  021%=      5-min Rain = 0
KBY1 150443Z 25007KT 18/M05 A2995 RMK A01 T01771050  RH  021%=      5-min Rain = 0
KBY1 150444Z 25007KT 18/M05 A2995 RMK A01 T01771050  RH  021%=      5-min Rain = 0
KBY1 150445Z 25006KT 18/M05 A2995 RMK A01 T01761050  RH  021%=      5-min Rain = 0
KBY1 150446Z 25005KT 18/M05 A2995 RMK A01 T01751051  RH  021%=      5-min Rain = 0
KBY1 150447Z 25006KT 17/M05 A2995 RMK A01 T01741051  RH  021%=      5-min Rain = 0
KBY1 150448Z 25005KT 17/M05 A2995 RMK A01 T01731051  RH  021%=      5-min Rain = 0
KBY1 150449Z 25005KT 17/M05 A2995 RMK A01 T01731051  RH  021%=      5-min Rain = 0
KBY1 150450Z 25006KT 17/M05 A2995 RMK A01 T01721051  RH  021%=      5-min Rain = 0
KBY1 150451Z 25006KT 17/M05 A2995 RMK A01 T01711051  RH  022%=      5-min Rain = 0
KBY1 150452Z 25005KT 17/M05 A2995 RMK A01 T01711050  RH  022%=      5-min Rain = 0
KBY1 150453Z 25007KT 17/M05 A2995 RMK A01 T01701051  RH  022%=      5-min Rain = 0
KBY1 150454Z 24005KT 17/M05 A2995 RMK A01 T01711050  RH  022%=      5-min Rain = 0
KBY1 150455Z 25006KT 17/M05 A2995 RMK A01 T01711050  RH  022%=      5-min Rain = 0
KBY1 150456Z 25006KT 17/M05 A2995 RMK A01 T01711050  RH  022%=      5-min Rain = 0
KBY1 150457Z 24006KT 17/M05 A2995 RMK A01 T01711050  RH  022%=      5-min Rain = 0
KBY1 150458Z 24005KT 17/M05 A2995 RMK A01 T01711049  RH  022%=      5-min Rain = 0
KBY1 150459Z 24005KT 17/M05 A2995 RMK A01 T01711049  RH  022%=      5-min Rain = 0
KBY1 150500Z 24005KT 17/M05 A2995 RMK A01 T01691050  RH  022%=      5-min Rain = 0
KBY1 150501Z 25005KT 17/M05 A2995 RMK A01 T01681050  RH  022%=      5-min Rain = 0
KBY1 150502Z 25005KT 17/M05 A2995 RMK A01 T01671050  RH  022%=      5-min Rain = 0
KBY1 150503Z 25005KT 17/M05 A2995 RMK A01 T01671050  RH  022%=      5-min Rain = 0
KBY1 150504Z 26004KT 17/M05 A2995 RMK A01 T01661050  RH  022%=      5-min Rain = 0
KBY1 150505Z 26003KT 17/M05 A2994 RMK A01 T01661050  RH  022%=      5-min Rain = 0
KBY1 150506Z 27004KT 17/M05 A2995 RMK A01 T01651049  RH  023%=      5-min Rain = 0
KBY1 150507Z 27003KT 17/M05 A2995 RMK A01 T01651050  RH  023%=      5-min Rain = 0
KBY1 150508Z 26004KT 16/M05 A2995 RMK A01 T01641051  RH  023%=      5-min Rain = 0
KBY1 150509Z 26004KT 16/M05 A2995 RMK A01 T01621051  RH  023%=      5-min Rain = 0
KBY1 150510Z 25005KT 16/M05 A2995 RMK A01 T01611051  RH  023%=      5-min Rain = 0
KBY1 150511Z 26005KT 16/M05 A2995 RMK A01 T01601050  RH  023%=      5-min Rain = 0
KBY1 150512Z 25005KT 16/M05 A2995 RMK A01 T01601050  RH  023%=      5-min Rain = 0
KBY1 150513Z 25006KT 16/M05 A2995 RMK A01 T01601049  RH  023%=      5-min Rain = 0
KBY1 150514Z 26006KT 16/M05 A2995 RMK A01 T01611048  RH  023%=      5-min Rain = 0
KBY1 150515Z 26006KT 16/M05 A2995 RMK A01 T01621048  RH  023%=      5-min Rain = 0
KBY1 150516Z 26006KT 16/M05 A2995 RMK A01 T01631048  RH  023%=      5-min Rain = 0
KBY1 150517Z 26006KT 16/M05 A2995 RMK A01 T01631048  RH  023%=      5-min Rain = 0
KBY1 150518Z 26006KT 16/M05 A2995 RMK A01 T01621048  RH  023%=      5-min Rain = 0
KBY1 150519Z 27006KT 16/M05 A2995 RMK A01 T01621048  RH  023%=      5-min Rain = 0
KBY1 150520Z 26005KT 16/M05 A2995 RMK A01 T01621048  RH  023%=      5-min Rain = 0
KBY1 150521Z 27005KT 16/M05 A2995 RMK A01 T01601048  RH  023%=      5-min Rain = 0
KBY1 150522Z 26005KT 16/M05 A2995 RMK A01 T01591049  RH  024%=      5-min Rain = 0
KBY1 150523Z 26004KT 16/M05 A2995 RMK A01 T01571049  RH  024%=      5-min Rain = 0
KBY1 150524Z 25006KT 16/M05 A2995 RMK A01 T01561048  RH  024%=      5-min Rain = 0
KBY1 150525Z 25006KT 16/M05 A2995 RMK A01 T01571047  RH  024%=      5-min Rain = 0
KBY1 150526Z 25005KT 16/M05 A2995 RMK A01 T01571047  RH  024%=      5-min Rain = 0
KBY1 150527Z 24005KT 16/M05 A2995 RMK A01 T01571046  RH  024%=      5-min Rain = 0
KBY1 150528Z 24005KT 16/M05 A2995 RMK A01 T01571045  RH  025%=      5-min Rain = 0
KBY1 150529Z 24006KT 16/M05 A2995 RMK A01 T01571045  RH  025%=      5-min Rain = 0
KBY1 150530Z 24006KT 16/M04 A2995 RMK A01 T01571044  RH  025%=      5-min Rain = 0
KBY1 150531Z 24007KT 16/M04 A2995 RMK A01 T01571042  RH  025%=      5-min Rain = 0
KBY1 150532Z 24007KT 16/M04 A2995 RMK A01 T01571040  RH  026%=      5-min Rain = 0
KBY1 150533Z 24008KT 16/M04 A2995 RMK A01 T01571037  RH  026%=      5-min Rain = 0
KBY1 150534Z 23008KT 16/M03 A2995 RMK A01 T01581034  RH  027%=      5-min Rain = 0
KBY1 150535Z 23008KT 16/M03 A2995 RMK A01 T01601031  RH  027%=      5-min Rain = 0
KBY1 150536Z 24008KT 16/M03 A2995 RMK A01 T01621029  RH  027%=      5-min Rain = 0
KBY1 150537Z 23008KT 16/M03 A2994 RMK A01 T01631028  RH  027%=      5-min Rain = 0
KBY1 150538Z 24009KT 16/M03 A2995 RMK A01 T01641026  RH  027%=      5-min Rain = 0
KBY1 150539Z 24010KT 17/M03 A2995 RMK A01 T01661025  RH  027%=      5-min Rain = 0
KBY1 150540Z 24009KT 17/M02 A2995 RMK A01 T01671023  RH  027%=      5-min Rain = 0
KBY1 150541Z 24010KT 17/M02 A2995 RMK A01 T01681022  RH  027%=      5-min Rain = 0
KBY1 150542Z 24010KT 17/M02 A2995 RMK A01 T01681021  RH  027%=      5-min Rain = 0
KBY1 150543Z 24010KT 17/M02 A2995 RMK A01 T01681019  RH  028%=      5-min Rain = 0
KBY1 150544Z 23010KT 17/M02 A2995 RMK A01 T01691017  RH  028%=      5-min Rain = 0
KBY1 150545Z 24009KT 17/M02 A2995 RMK A01 T01691017  RH  028%=      5-min Rain = 0
KBY1 150546Z 24009KT 17/M02 A2995 RMK A01 T01691016  RH  028%=      5-min Rain = 0
KBY1 150547Z 24010KT 17/M02 A2995 RMK A01 T01691016  RH  028%=      5-min Rain = 0
KBY1 150548Z 24009KT 17/M02 A2995 RMK A01 T01701015  RH  028%=      5-min Rain = 0
KBY1 150549Z 24009KT 17/M02 A2995 RMK A01 T01701016  RH  028%=      5-min Rain = 0
KBY1 150550Z 24010KT 17/M02 A2995 RMK A01 T01691015  RH  028%=      5-min Rain = 0
KBY1 150551Z 24010KT 17/M02 A2995 RMK A01 T01691015  RH  028%=      5-min Rain = 0
KBY1 150552Z 24009KT 17/M02 A2995 RMK A01 T01701015  RH  028%=      5-min Rain = 0
KBY1 150553Z 23011KT 17/M01 A2995 RMK A01 T01691014  RH  029%=      5-min Rain = 0
KBY1 150554Z 23009KT 17/M01 A2995 RMK A01 T01691013  RH  029%=      5-min Rain = 0
KBY1 150555Z 24010KT 17/M01 A2995 RMK A01 T01701014  RH  029%=      5-min Rain = 0
KBY1 150556Z 24011KT 17/M01 A2995 RMK A01 T01701013  RH  029%=      5-min Rain = 0
KBY1 150557Z 24011KT 17/M01 A2995 RMK A01 T01711010  RH  029%=      5-min Rain = 0
KBY1 150558Z 24010KT 17/M01 A2995 RMK A01 T01721009  RH  029%=      5-min Rain = 0
KBY1 150559Z 24010KT 17/M01 A2995 RMK A01 T01711008  RH  029%=      5-min Rain = 0

Page generated in 0.0326 seconds.